<?xml version="1.0" encoding="UTF-8" standalone="no" ?>
<gpx xmlns="http://www.topografix.com/GPX/1/1" xmlns:xsi="http://www.w3.org/2001/XMLSchema-instance" xsi:schemaLocation="http://www.topografix.com/GPX/1/1 http://www.topografix.com/GPX/1/1/gpx.xsd" version="1.1" creator="VisuGPX - https://www.visugpx.com">
  <metadata>
    <name>L'Isle-sur-la-Sorgue Course à pied</name>
  </metadata>
  <trk>
    <name><![CDATA[L'Isle-sur-la-Sorgue Course à pied_1]]></name>
    <trkseg>
      <trkpt lat="43.93564" lon="5.07568">
        <ele>98.2</ele>
        <time>2021-11-13T08:17:53Z</time>
      </trkpt>
      <trkpt lat="43.93562" lon="5.07563">
        <ele>98.4</ele>
        <time>2021-11-13T08:17:57Z</time>
      </trkpt>
      <trkpt lat="43.93552" lon="5.07545">
        <ele>98.2</ele>
        <time>2021-11-13T08:18:08Z</time>
      </trkpt>
      <trkpt lat="43.93541" lon="5.07524">
        <ele>98.2</ele>
        <time>2021-11-13T08:18:20Z</time>
      </trkpt>
      <trkpt lat="43.93538" lon="5.07517">
        <ele>97.6</ele>
        <time>2021-11-13T08:18:24Z</time>
      </trkpt>
      <trkpt lat="43.93541" lon="5.07508">
        <ele>97.6</ele>
        <time>2021-11-13T08:18:29Z</time>
      </trkpt>
      <trkpt lat="43.93539" lon="5.07512">
        <ele>97.6</ele>
        <time>2021-11-13T08:18:33Z</time>
      </trkpt>
      <trkpt lat="43.93537" lon="5.07515">
        <ele>97.6</ele>
        <time>2021-11-13T08:18:36Z</time>
      </trkpt>
      <trkpt lat="43.93532" lon="5.07511">
        <ele>97.8</ele>
        <time>2021-11-13T08:18:40Z</time>
      </trkpt>
      <trkpt lat="43.93531" lon="5.0751">
        <ele>97.8</ele>
        <time>2021-11-13T08:18:41Z</time>
      </trkpt>
      <trkpt lat="43.93528" lon="5.07505">
        <ele>97.6</ele>
        <time>2021-11-13T08:18:45Z</time>
      </trkpt>
      <trkpt lat="43.93536" lon="5.07493">
        <ele>97.2</ele>
        <time>2021-11-13T08:18:54Z</time>
      </trkpt>
      <trkpt lat="43.93541" lon="5.07487">
        <ele>97.2</ele>
        <time>2021-11-13T08:18:58Z</time>
      </trkpt>
      <trkpt lat="43.93551" lon="5.07464">
        <ele>96.6</ele>
        <time>2021-11-13T08:19:09Z</time>
      </trkpt>
      <trkpt lat="43.93556" lon="5.07454">
        <ele>96.8</ele>
        <time>2021-11-13T08:19:15Z</time>
      </trkpt>
      <trkpt lat="43.93562" lon="5.07445">
        <ele>96.8</ele>
        <time>2021-11-13T08:19:20Z</time>
      </trkpt>
      <trkpt lat="43.93574" lon="5.07427">
        <ele>96.8</ele>
        <time>2021-11-13T08:19:32Z</time>
      </trkpt>
      <trkpt lat="43.93585" lon="5.07405">
        <ele>96.6</ele>
        <time>2021-11-13T08:19:44Z</time>
      </trkpt>
      <trkpt lat="43.93597" lon="5.07386">
        <ele>96.8</ele>
        <time>2021-11-13T08:19:54Z</time>
      </trkpt>
      <trkpt lat="43.93612" lon="5.07372">
        <ele>96.4</ele>
        <time>2021-11-13T08:20:04Z</time>
      </trkpt>
      <trkpt lat="43.93626" lon="5.07356">
        <ele>96.6</ele>
        <time>2021-11-13T08:20:16Z</time>
      </trkpt>
      <trkpt lat="43.9364" lon="5.07338">
        <ele>96.6</ele>
        <time>2021-11-13T08:20:26Z</time>
      </trkpt>
      <trkpt lat="43.93647" lon="5.07326">
        <ele>96.4</ele>
        <time>2021-11-13T08:20:34Z</time>
      </trkpt>
      <trkpt lat="43.93647" lon="5.07322">
        <ele>96.4</ele>
        <time>2021-11-13T08:20:36Z</time>
      </trkpt>
      <trkpt lat="43.93648" lon="5.07315">
        <ele>96.6</ele>
        <time>2021-11-13T08:20:39Z</time>
      </trkpt>
      <trkpt lat="43.93652" lon="5.07289">
        <ele>96.8</ele>
        <time>2021-11-13T08:20:50Z</time>
      </trkpt>
      <trkpt lat="43.93656" lon="5.07263">
        <ele>96.4</ele>
        <time>2021-11-13T08:21:02Z</time>
      </trkpt>
      <trkpt lat="43.93663" lon="5.07239">
        <ele>96.8</ele>
        <time>2021-11-13T08:21:13Z</time>
      </trkpt>
      <trkpt lat="43.93671" lon="5.07215">
        <ele>96.4</ele>
        <time>2021-11-13T08:21:25Z</time>
      </trkpt>
      <trkpt lat="43.93683" lon="5.07193">
        <ele>96.4</ele>
        <time>2021-11-13T08:21:37Z</time>
      </trkpt>
      <trkpt lat="43.93701" lon="5.07186">
        <ele>96.4</ele>
        <time>2021-11-13T08:21:50Z</time>
      </trkpt>
      <trkpt lat="43.93719" lon="5.07174">
        <ele>96.6</ele>
        <time>2021-11-13T08:22:01Z</time>
      </trkpt>
      <trkpt lat="43.93734" lon="5.07158">
        <ele>96.2</ele>
        <time>2021-11-13T08:22:13Z</time>
      </trkpt>
      <trkpt lat="43.93735" lon="5.07157">
        <ele>96.2</ele>
        <time>2021-11-13T08:22:14Z</time>
      </trkpt>
      <trkpt lat="43.93752" lon="5.07146">
        <ele>96.2</ele>
        <time>2021-11-13T08:22:26Z</time>
      </trkpt>
      <trkpt lat="43.93754" lon="5.07145">
        <ele>96.2</ele>
        <time>2021-11-13T08:22:27Z</time>
      </trkpt>
      <trkpt lat="43.93772" lon="5.07134">
        <ele>96</ele>
        <time>2021-11-13T08:22:39Z</time>
      </trkpt>
      <trkpt lat="43.93789" lon="5.07126">
        <ele>96.2</ele>
        <time>2021-11-13T08:22:50Z</time>
      </trkpt>
      <trkpt lat="43.93807" lon="5.0712">
        <ele>97.2</ele>
        <time>2021-11-13T08:23:03Z</time>
      </trkpt>
      <trkpt lat="43.93809" lon="5.07119">
        <ele>97.2</ele>
        <time>2021-11-13T08:23:04Z</time>
      </trkpt>
      <trkpt lat="43.93822" lon="5.07115">
        <ele>96.6</ele>
        <time>2021-11-13T08:23:15Z</time>
      </trkpt>
      <trkpt lat="43.9384" lon="5.07107">
        <ele>96.6</ele>
        <time>2021-11-13T08:23:27Z</time>
      </trkpt>
      <trkpt lat="43.93857" lon="5.07097">
        <ele>96.8</ele>
        <time>2021-11-13T08:23:39Z</time>
      </trkpt>
      <trkpt lat="43.9387" lon="5.07088">
        <ele>96.4</ele>
        <time>2021-11-13T08:23:47Z</time>
      </trkpt>
      <trkpt lat="43.93878" lon="5.07079">
        <ele>96.8</ele>
        <time>2021-11-13T08:23:54Z</time>
      </trkpt>
      <trkpt lat="43.9389" lon="5.07059">
        <ele>96.6</ele>
        <time>2021-11-13T08:24:06Z</time>
      </trkpt>
      <trkpt lat="43.93894" lon="5.07053">
        <ele>97</ele>
        <time>2021-11-13T08:24:09Z</time>
      </trkpt>
      <trkpt lat="43.93907" lon="5.07034">
        <ele>96.4</ele>
        <time>2021-11-13T08:24:20Z</time>
      </trkpt>
      <trkpt lat="43.93911" lon="5.07029">
        <ele>96.4</ele>
        <time>2021-11-13T08:24:23Z</time>
      </trkpt>
      <trkpt lat="43.93925" lon="5.0701">
        <ele>96.6</ele>
        <time>2021-11-13T08:24:34Z</time>
      </trkpt>
      <trkpt lat="43.93931" lon="5.06997">
        <ele>96.4</ele>
        <time>2021-11-13T08:24:41Z</time>
      </trkpt>
      <trkpt lat="43.93937" lon="5.06985">
        <ele>96.2</ele>
        <time>2021-11-13T08:24:48Z</time>
      </trkpt>
      <trkpt lat="43.93946" lon="5.06961">
        <ele>96.6</ele>
        <time>2021-11-13T08:24:58Z</time>
      </trkpt>
      <trkpt lat="43.9395" lon="5.06954">
        <ele>96.2</ele>
        <time>2021-11-13T08:25:02Z</time>
      </trkpt>
      <trkpt lat="43.93962" lon="5.06934">
        <ele>96.2</ele>
        <time>2021-11-13T08:25:13Z</time>
      </trkpt>
      <trkpt lat="43.93975" lon="5.06913">
        <ele>96.6</ele>
        <time>2021-11-13T08:25:24Z</time>
      </trkpt>
      <trkpt lat="43.93986" lon="5.06892">
        <ele>95.8</ele>
        <time>2021-11-13T08:25:33Z</time>
      </trkpt>
      <trkpt lat="43.93997" lon="5.0687">
        <ele>96.2</ele>
        <time>2021-11-13T08:25:45Z</time>
      </trkpt>
      <trkpt lat="43.94003" lon="5.06856">
        <ele>96</ele>
        <time>2021-11-13T08:25:53Z</time>
      </trkpt>
      <trkpt lat="43.94014" lon="5.06835">
        <ele>96.4</ele>
        <time>2021-11-13T08:26:03Z</time>
      </trkpt>
      <trkpt lat="43.94027" lon="5.06818">
        <ele>96</ele>
        <time>2021-11-13T08:26:12Z</time>
      </trkpt>
      <trkpt lat="43.94037" lon="5.06795">
        <ele>96.2</ele>
        <time>2021-11-13T08:26:24Z</time>
      </trkpt>
      <trkpt lat="43.94051" lon="5.06777">
        <ele>96</ele>
        <time>2021-11-13T08:26:38Z</time>
      </trkpt>
      <trkpt lat="43.94066" lon="5.06761">
        <ele>96.2</ele>
        <time>2021-11-13T08:26:49Z</time>
      </trkpt>
      <trkpt lat="43.94082" lon="5.06747">
        <ele>96.2</ele>
        <time>2021-11-13T08:27:00Z</time>
      </trkpt>
      <trkpt lat="43.94099" lon="5.06739">
        <ele>96.8</ele>
        <time>2021-11-13T08:27:12Z</time>
      </trkpt>
      <trkpt lat="43.94107" lon="5.06736">
        <ele>96.8</ele>
        <time>2021-11-13T08:27:17Z</time>
      </trkpt>
      <trkpt lat="43.94112" lon="5.0673">
        <ele>96.6</ele>
        <time>2021-11-13T08:27:22Z</time>
      </trkpt>
      <trkpt lat="43.9413" lon="5.0672">
        <ele>96</ele>
        <time>2021-11-13T08:27:33Z</time>
      </trkpt>
      <trkpt lat="43.94149" lon="5.06712">
        <ele>96.2</ele>
        <time>2021-11-13T08:27:44Z</time>
      </trkpt>
      <trkpt lat="43.94168" lon="5.06708">
        <ele>96</ele>
        <time>2021-11-13T08:27:55Z</time>
      </trkpt>
      <trkpt lat="43.94186" lon="5.06705">
        <ele>96.2</ele>
        <time>2021-11-13T08:28:05Z</time>
      </trkpt>
      <trkpt lat="43.94193" lon="5.06703">
        <ele>95.8</ele>
        <time>2021-11-13T08:28:09Z</time>
      </trkpt>
      <trkpt lat="43.94211" lon="5.06699">
        <ele>96</ele>
        <time>2021-11-13T08:28:21Z</time>
      </trkpt>
      <trkpt lat="43.9422" lon="5.06699">
        <ele>95.8</ele>
        <time>2021-11-13T08:28:29Z</time>
      </trkpt>
      <trkpt lat="43.94226" lon="5.06697">
        <ele>96</ele>
        <time>2021-11-13T08:28:33Z</time>
      </trkpt>
      <trkpt lat="43.94228" lon="5.06697">
        <ele>96</ele>
        <time>2021-11-13T08:28:35Z</time>
      </trkpt>
      <trkpt lat="43.94237" lon="5.06694">
        <ele>95.8</ele>
        <time>2021-11-13T08:28:41Z</time>
      </trkpt>
      <trkpt lat="43.94256" lon="5.06688">
        <ele>95.8</ele>
        <time>2021-11-13T08:28:51Z</time>
      </trkpt>
      <trkpt lat="43.94276" lon="5.06684">
        <ele>95.8</ele>
        <time>2021-11-13T08:29:05Z</time>
      </trkpt>
      <trkpt lat="43.94292" lon="5.06673">
        <ele>96.2</ele>
        <time>2021-11-13T08:29:14Z</time>
      </trkpt>
      <trkpt lat="43.94305" lon="5.06657">
        <ele>97</ele>
        <time>2021-11-13T08:29:25Z</time>
      </trkpt>
      <trkpt lat="43.94316" lon="5.06635">
        <ele>96.8</ele>
        <time>2021-11-13T08:29:36Z</time>
      </trkpt>
      <trkpt lat="43.94327" lon="5.06614">
        <ele>96.2</ele>
        <time>2021-11-13T08:29:47Z</time>
      </trkpt>
      <trkpt lat="43.94328" lon="5.06612">
        <ele>96.2</ele>
        <time>2021-11-13T08:29:48Z</time>
      </trkpt>
      <trkpt lat="43.94339" lon="5.06592">
        <ele>95.8</ele>
        <time>2021-11-13T08:30:00Z</time>
      </trkpt>
      <trkpt lat="43.94352" lon="5.06574">
        <ele>95.8</ele>
        <time>2021-11-13T08:30:13Z</time>
      </trkpt>
      <trkpt lat="43.94352" lon="5.06573">
        <ele>95.8</ele>
        <time>2021-11-13T08:30:14Z</time>
      </trkpt>
      <trkpt lat="43.94367" lon="5.06556">
        <ele>95.8</ele>
        <time>2021-11-13T08:30:28Z</time>
      </trkpt>
      <trkpt lat="43.94374" lon="5.06539">
        <ele>95.6</ele>
        <time>2021-11-13T08:30:37Z</time>
      </trkpt>
      <trkpt lat="43.94376" lon="5.0653">
        <ele>95.6</ele>
        <time>2021-11-13T08:30:42Z</time>
      </trkpt>
      <trkpt lat="43.94379" lon="5.06525">
        <ele>95.6</ele>
        <time>2021-11-13T08:30:45Z</time>
      </trkpt>
      <trkpt lat="43.94389" lon="5.06502">
        <ele>95.8</ele>
        <time>2021-11-13T08:30:58Z</time>
      </trkpt>
      <trkpt lat="43.94399" lon="5.0648">
        <ele>95.8</ele>
        <time>2021-11-13T08:31:09Z</time>
      </trkpt>
      <trkpt lat="43.9441" lon="5.06456">
        <ele>96</ele>
        <time>2021-11-13T08:31:21Z</time>
      </trkpt>
      <trkpt lat="43.94415" lon="5.06442">
        <ele>95.8</ele>
        <time>2021-11-13T08:31:29Z</time>
      </trkpt>
      <trkpt lat="43.94424" lon="5.0642">
        <ele>96</ele>
        <time>2021-11-13T08:31:40Z</time>
      </trkpt>
      <trkpt lat="43.94432" lon="5.06397">
        <ele>95.8</ele>
        <time>2021-11-13T08:31:52Z</time>
      </trkpt>
      <trkpt lat="43.94437" lon="5.06372">
        <ele>95.8</ele>
        <time>2021-11-13T08:32:03Z</time>
      </trkpt>
      <trkpt lat="43.94437" lon="5.0637">
        <ele>95.8</ele>
        <time>2021-11-13T08:32:04Z</time>
      </trkpt>
      <trkpt lat="43.94439" lon="5.06354">
        <ele>95.6</ele>
        <time>2021-11-13T08:32:13Z</time>
      </trkpt>
      <trkpt lat="43.94443" lon="5.06332">
        <ele>95.8</ele>
        <time>2021-11-13T08:32:23Z</time>
      </trkpt>
      <trkpt lat="43.94444" lon="5.06324">
        <ele>95.8</ele>
        <time>2021-11-13T08:32:27Z</time>
      </trkpt>
      <trkpt lat="43.94448" lon="5.06308">
        <ele>96</ele>
        <time>2021-11-13T08:32:35Z</time>
      </trkpt>
      <trkpt lat="43.94451" lon="5.06282">
        <ele>95.8</ele>
        <time>2021-11-13T08:32:46Z</time>
      </trkpt>
      <trkpt lat="43.94454" lon="5.06255">
        <ele>95.4</ele>
        <time>2021-11-13T08:32:56Z</time>
      </trkpt>
      <trkpt lat="43.94457" lon="5.06229">
        <ele>95.8</ele>
        <time>2021-11-13T08:33:07Z</time>
      </trkpt>
      <trkpt lat="43.9446" lon="5.06208">
        <ele>95.4</ele>
        <time>2021-11-13T08:33:16Z</time>
      </trkpt>
      <trkpt lat="43.94463" lon="5.06189">
        <ele>95.4</ele>
        <time>2021-11-13T08:33:26Z</time>
      </trkpt>
      <trkpt lat="43.94471" lon="5.06166">
        <ele>95.6</ele>
        <time>2021-11-13T08:33:36Z</time>
      </trkpt>
      <trkpt lat="43.9448" lon="5.06144">
        <ele>95.4</ele>
        <time>2021-11-13T08:33:46Z</time>
      </trkpt>
      <trkpt lat="43.94486" lon="5.06132">
        <ele>95.2</ele>
        <time>2021-11-13T08:33:51Z</time>
      </trkpt>
      <trkpt lat="43.94498" lon="5.06111">
        <ele>95.4</ele>
        <time>2021-11-13T08:34:01Z</time>
      </trkpt>
      <trkpt lat="43.94508" lon="5.0609">
        <ele>95.4</ele>
        <time>2021-11-13T08:34:11Z</time>
      </trkpt>
      <trkpt lat="43.94517" lon="5.06067">
        <ele>95.4</ele>
        <time>2021-11-13T08:34:21Z</time>
      </trkpt>
      <trkpt lat="43.94528" lon="5.06046">
        <ele>95.2</ele>
        <time>2021-11-13T08:34:33Z</time>
      </trkpt>
      <trkpt lat="43.94539" lon="5.06025">
        <ele>95</ele>
        <time>2021-11-13T08:34:44Z</time>
      </trkpt>
      <trkpt lat="43.9455" lon="5.06004">
        <ele>95.6</ele>
        <time>2021-11-13T08:34:54Z</time>
      </trkpt>
      <trkpt lat="43.94563" lon="5.05985">
        <ele>94.8</ele>
        <time>2021-11-13T08:35:04Z</time>
      </trkpt>
      <trkpt lat="43.94575" lon="5.05965">
        <ele>95.4</ele>
        <time>2021-11-13T08:35:15Z</time>
      </trkpt>
      <trkpt lat="43.94588" lon="5.05946">
        <ele>95</ele>
        <time>2021-11-13T08:35:26Z</time>
      </trkpt>
      <trkpt lat="43.94603" lon="5.05928">
        <ele>95.8</ele>
        <time>2021-11-13T08:35:37Z</time>
      </trkpt>
      <trkpt lat="43.94618" lon="5.05912">
        <ele>95.4</ele>
        <time>2021-11-13T08:35:47Z</time>
      </trkpt>
      <trkpt lat="43.94633" lon="5.05898">
        <ele>95.2</ele>
        <time>2021-11-13T08:35:57Z</time>
      </trkpt>
      <trkpt lat="43.94649" lon="5.05884">
        <ele>95</ele>
        <time>2021-11-13T08:36:09Z</time>
      </trkpt>
      <trkpt lat="43.94662" lon="5.05867">
        <ele>95.6</ele>
        <time>2021-11-13T08:36:20Z</time>
      </trkpt>
      <trkpt lat="43.94678" lon="5.05854">
        <ele>95.4</ele>
        <time>2021-11-13T08:36:32Z</time>
      </trkpt>
      <trkpt lat="43.94696" lon="5.05843">
        <ele>95.2</ele>
        <time>2021-11-13T08:36:42Z</time>
      </trkpt>
      <trkpt lat="43.94714" lon="5.05836">
        <ele>95.2</ele>
        <time>2021-11-13T08:36:53Z</time>
      </trkpt>
      <trkpt lat="43.94733" lon="5.05839">
        <ele>95.2</ele>
        <time>2021-11-13T08:37:05Z</time>
      </trkpt>
      <trkpt lat="43.94749" lon="5.05851">
        <ele>95.6</ele>
        <time>2021-11-13T08:37:14Z</time>
      </trkpt>
      <trkpt lat="43.94762" lon="5.05868">
        <ele>95.4</ele>
        <time>2021-11-13T08:37:25Z</time>
      </trkpt>
      <trkpt lat="43.94769" lon="5.05872">
        <ele>95.2</ele>
        <time>2021-11-13T08:37:29Z</time>
      </trkpt>
      <trkpt lat="43.94788" lon="5.0588">
        <ele>95.2</ele>
        <time>2021-11-13T08:37:40Z</time>
      </trkpt>
      <trkpt lat="43.94804" lon="5.05893">
        <ele>95.8</ele>
        <time>2021-11-13T08:37:49Z</time>
      </trkpt>
      <trkpt lat="43.94822" lon="5.05903">
        <ele>95.8</ele>
        <time>2021-11-13T08:37:59Z</time>
      </trkpt>
      <trkpt lat="43.94838" lon="5.05914">
        <ele>95.2</ele>
        <time>2021-11-13T08:38:10Z</time>
      </trkpt>
      <trkpt lat="43.94844" lon="5.0592">
        <ele>95.2</ele>
        <time>2021-11-13T08:38:15Z</time>
      </trkpt>
      <trkpt lat="43.9486" lon="5.05933">
        <ele>95.6</ele>
        <time>2021-11-13T08:38:28Z</time>
      </trkpt>
      <trkpt lat="43.94876" lon="5.05946">
        <ele>96</ele>
        <time>2021-11-13T08:38:40Z</time>
      </trkpt>
      <trkpt lat="43.94894" lon="5.05956">
        <ele>95.6</ele>
        <time>2021-11-13T08:38:50Z</time>
      </trkpt>
      <trkpt lat="43.94912" lon="5.05956">
        <ele>95.8</ele>
        <time>2021-11-13T08:39:01Z</time>
      </trkpt>
      <trkpt lat="43.94924" lon="5.05956">
        <ele>96.2</ele>
        <time>2021-11-13T08:39:07Z</time>
      </trkpt>
      <trkpt lat="43.94943" lon="5.0595">
        <ele>95.4</ele>
        <time>2021-11-13T08:39:18Z</time>
      </trkpt>
      <trkpt lat="43.94961" lon="5.05944">
        <ele>95.2</ele>
        <time>2021-11-13T08:39:30Z</time>
      </trkpt>
      <trkpt lat="43.9498" lon="5.05946">
        <ele>95.2</ele>
        <time>2021-11-13T08:39:40Z</time>
      </trkpt>
      <trkpt lat="43.94998" lon="5.05953">
        <ele>95</ele>
        <time>2021-11-13T08:39:50Z</time>
      </trkpt>
      <trkpt lat="43.95014" lon="5.05965">
        <ele>95.2</ele>
        <time>2021-11-13T08:40:01Z</time>
      </trkpt>
      <trkpt lat="43.95031" lon="5.05976">
        <ele>95.4</ele>
        <time>2021-11-13T08:40:12Z</time>
      </trkpt>
      <trkpt lat="43.95047" lon="5.0599">
        <ele>95.6</ele>
        <time>2021-11-13T08:40:23Z</time>
      </trkpt>
      <trkpt lat="43.95062" lon="5.06006">
        <ele>95.6</ele>
        <time>2021-11-13T08:40:34Z</time>
      </trkpt>
      <trkpt lat="43.95079" lon="5.06021">
        <ele>95.6</ele>
        <time>2021-11-13T08:40:45Z</time>
      </trkpt>
      <trkpt lat="43.95093" lon="5.06036">
        <ele>95.8</ele>
        <time>2021-11-13T08:40:56Z</time>
      </trkpt>
      <trkpt lat="43.95102" lon="5.06042">
        <ele>96</ele>
        <time>2021-11-13T08:41:02Z</time>
      </trkpt>
      <trkpt lat="43.95115" lon="5.06043">
        <ele>96.2</ele>
        <time>2021-11-13T08:41:11Z</time>
      </trkpt>
      <trkpt lat="43.95134" lon="5.06037">
        <ele>96.6</ele>
        <time>2021-11-13T08:41:23Z</time>
      </trkpt>
      <trkpt lat="43.95139" lon="5.06033">
        <ele>96.6</ele>
        <time>2021-11-13T08:41:27Z</time>
      </trkpt>
      <trkpt lat="43.95149" lon="5.06027">
        <ele>96.4</ele>
        <time>2021-11-13T08:41:32Z</time>
      </trkpt>
      <trkpt lat="43.95165" lon="5.06014">
        <ele>96.2</ele>
        <time>2021-11-13T08:41:42Z</time>
      </trkpt>
      <trkpt lat="43.9518" lon="5.06003">
        <ele>95.2</ele>
        <time>2021-11-13T08:41:51Z</time>
      </trkpt>
      <trkpt lat="43.95183" lon="5.06">
        <ele>95.2</ele>
        <time>2021-11-13T08:41:53Z</time>
      </trkpt>
      <trkpt lat="43.95186" lon="5.05994">
        <ele>95</ele>
        <time>2021-11-13T08:41:57Z</time>
      </trkpt>
      <trkpt lat="43.95203" lon="5.0598">
        <ele>95.4</ele>
        <time>2021-11-13T08:42:08Z</time>
      </trkpt>
      <trkpt lat="43.95219" lon="5.05968">
        <ele>95.6</ele>
        <time>2021-11-13T08:42:19Z</time>
      </trkpt>
      <trkpt lat="43.95226" lon="5.05965">
        <ele>95.4</ele>
        <time>2021-11-13T08:42:23Z</time>
      </trkpt>
      <trkpt lat="43.95245" lon="5.05959">
        <ele>95.8</ele>
        <time>2021-11-13T08:42:34Z</time>
      </trkpt>
      <trkpt lat="43.95252" lon="5.05958">
        <ele>95.8</ele>
        <time>2021-11-13T08:42:39Z</time>
      </trkpt>
      <trkpt lat="43.95267" lon="5.05956">
        <ele>95.8</ele>
        <time>2021-11-13T08:42:48Z</time>
      </trkpt>
      <trkpt lat="43.95283" lon="5.05953">
        <ele>95.6</ele>
        <time>2021-11-13T08:42:58Z</time>
      </trkpt>
      <trkpt lat="43.95291" lon="5.05953">
        <ele>95.6</ele>
        <time>2021-11-13T08:43:04Z</time>
      </trkpt>
      <trkpt lat="43.95309" lon="5.05945">
        <ele>95.2</ele>
        <time>2021-11-13T08:43:14Z</time>
      </trkpt>
      <trkpt lat="43.95325" lon="5.05932">
        <ele>95.2</ele>
        <time>2021-11-13T08:43:25Z</time>
      </trkpt>
      <trkpt lat="43.95327" lon="5.05932">
        <ele>95.2</ele>
        <time>2021-11-13T08:43:26Z</time>
      </trkpt>
      <trkpt lat="43.95331" lon="5.0593">
        <ele>95.6</ele>
        <time>2021-11-13T08:43:30Z</time>
      </trkpt>
      <trkpt lat="43.95331" lon="5.0593">
        <ele>95.2</ele>
        <time>2021-11-13T08:43:35Z</time>
      </trkpt>
      <trkpt lat="43.95333" lon="5.05928">
        <ele>95.2</ele>
        <time>2021-11-13T08:43:38Z</time>
      </trkpt>
      <trkpt lat="43.95335" lon="5.05926">
        <ele>95.2</ele>
        <time>2021-11-13T08:43:40Z</time>
      </trkpt>
      <trkpt lat="43.9534" lon="5.05922">
        <ele>95.2</ele>
        <time>2021-11-13T08:43:45Z</time>
      </trkpt>
      <trkpt lat="43.95343" lon="5.05917">
        <ele>95.2</ele>
        <time>2021-11-13T08:43:48Z</time>
      </trkpt>
      <trkpt lat="43.95358" lon="5.05899">
        <ele>95.2</ele>
        <time>2021-11-13T08:44:00Z</time>
      </trkpt>
      <trkpt lat="43.95371" lon="5.05882">
        <ele>96.2</ele>
        <time>2021-11-13T08:44:11Z</time>
      </trkpt>
      <trkpt lat="43.95372" lon="5.05881">
        <ele>96.2</ele>
        <time>2021-11-13T08:44:12Z</time>
      </trkpt>
      <trkpt lat="43.95386" lon="5.05865">
        <ele>95.6</ele>
        <time>2021-11-13T08:44:24Z</time>
      </trkpt>
      <trkpt lat="43.95389" lon="5.05839">
        <ele>95.8</ele>
        <time>2021-11-13T08:44:36Z</time>
      </trkpt>
      <trkpt lat="43.95388" lon="5.05812">
        <ele>95.8</ele>
        <time>2021-11-13T08:44:49Z</time>
      </trkpt>
      <trkpt lat="43.95386" lon="5.05786">
        <ele>95.8</ele>
        <time>2021-11-13T08:45:02Z</time>
      </trkpt>
      <trkpt lat="43.95384" lon="5.05761">
        <ele>95.8</ele>
        <time>2021-11-13T08:45:13Z</time>
      </trkpt>
      <trkpt lat="43.95383" lon="5.05736">
        <ele>95.6</ele>
        <time>2021-11-13T08:45:24Z</time>
      </trkpt>
      <trkpt lat="43.95383" lon="5.05716">
        <ele>95.2</ele>
        <time>2021-11-13T08:45:32Z</time>
      </trkpt>
      <trkpt lat="43.95392" lon="5.05693">
        <ele>95.4</ele>
        <time>2021-11-13T08:45:43Z</time>
      </trkpt>
      <trkpt lat="43.95404" lon="5.05672">
        <ele>95.4</ele>
        <time>2021-11-13T08:45:55Z</time>
      </trkpt>
      <trkpt lat="43.95414" lon="5.05659">
        <ele>95.4</ele>
        <time>2021-11-13T08:46:04Z</time>
      </trkpt>
      <trkpt lat="43.95427" lon="5.05642">
        <ele>95.4</ele>
        <time>2021-11-13T08:46:14Z</time>
      </trkpt>
      <trkpt lat="43.95441" lon="5.05626">
        <ele>95.2</ele>
        <time>2021-11-13T08:46:25Z</time>
      </trkpt>
      <trkpt lat="43.95458" lon="5.05614">
        <ele>95.2</ele>
        <time>2021-11-13T08:46:36Z</time>
      </trkpt>
      <trkpt lat="43.95476" lon="5.05604">
        <ele>95.6</ele>
        <time>2021-11-13T08:46:46Z</time>
      </trkpt>
      <trkpt lat="43.95492" lon="5.0559">
        <ele>94.8</ele>
        <time>2021-11-13T08:46:57Z</time>
      </trkpt>
      <trkpt lat="43.95509" lon="5.05582">
        <ele>95</ele>
        <time>2021-11-13T08:47:08Z</time>
      </trkpt>
      <trkpt lat="43.95525" lon="5.05568">
        <ele>94.8</ele>
        <time>2021-11-13T08:47:19Z</time>
      </trkpt>
      <trkpt lat="43.95542" lon="5.0556">
        <ele>94.8</ele>
        <time>2021-11-13T08:47:31Z</time>
      </trkpt>
      <trkpt lat="43.95559" lon="5.05547">
        <ele>95.4</ele>
        <time>2021-11-13T08:47:42Z</time>
      </trkpt>
      <trkpt lat="43.95572" lon="5.0553">
        <ele>94.8</ele>
        <time>2021-11-13T08:47:53Z</time>
      </trkpt>
      <trkpt lat="43.95585" lon="5.05515">
        <ele>95.2</ele>
        <time>2021-11-13T08:48:04Z</time>
      </trkpt>
      <trkpt lat="43.95587" lon="5.05512">
        <ele>95.2</ele>
        <time>2021-11-13T08:48:07Z</time>
      </trkpt>
      <trkpt lat="43.95599" lon="5.05496">
        <ele>95</ele>
        <time>2021-11-13T08:48:18Z</time>
      </trkpt>
      <trkpt lat="43.95609" lon="5.05474">
        <ele>95.6</ele>
        <time>2021-11-13T08:48:28Z</time>
      </trkpt>
      <trkpt lat="43.95617" lon="5.05451">
        <ele>95.4</ele>
        <time>2021-11-13T08:48:40Z</time>
      </trkpt>
      <trkpt lat="43.95625" lon="5.05429">
        <ele>95.2</ele>
        <time>2021-11-13T08:48:51Z</time>
      </trkpt>
      <trkpt lat="43.95639" lon="5.05411">
        <ele>95.2</ele>
        <time>2021-11-13T08:49:04Z</time>
      </trkpt>
      <trkpt lat="43.95657" lon="5.05405">
        <ele>95.4</ele>
        <time>2021-11-13T08:49:16Z</time>
      </trkpt>
      <trkpt lat="43.95666" lon="5.05401">
        <ele>96</ele>
        <time>2021-11-13T08:49:22Z</time>
      </trkpt>
      <trkpt lat="43.95668" lon="5.05401">
        <ele>95.8</ele>
        <time>2021-11-13T08:49:24Z</time>
      </trkpt>
      <trkpt lat="43.95674" lon="5.05401">
        <ele>95.2</ele>
        <time>2021-11-13T08:49:28Z</time>
      </trkpt>
      <trkpt lat="43.95691" lon="5.054">
        <ele>95.4</ele>
        <time>2021-11-13T08:49:37Z</time>
      </trkpt>
      <trkpt lat="43.95703" lon="5.054">
        <ele>95.2</ele>
        <time>2021-11-13T08:49:45Z</time>
      </trkpt>
      <trkpt lat="43.95708" lon="5.05402">
        <ele>95.2</ele>
        <time>2021-11-13T08:49:47Z</time>
      </trkpt>
      <trkpt lat="43.95726" lon="5.054">
        <ele>95.6</ele>
        <time>2021-11-13T08:49:56Z</time>
      </trkpt>
      <trkpt lat="43.95742" lon="5.05385">
        <ele>95</ele>
        <time>2021-11-13T08:50:08Z</time>
      </trkpt>
      <trkpt lat="43.95755" lon="5.05369">
        <ele>95.4</ele>
        <time>2021-11-13T08:50:18Z</time>
      </trkpt>
      <trkpt lat="43.95761" lon="5.05344">
        <ele>95.6</ele>
        <time>2021-11-13T08:50:29Z</time>
      </trkpt>
      <trkpt lat="43.95773" lon="5.05325">
        <ele>95.6</ele>
        <time>2021-11-13T08:50:42Z</time>
      </trkpt>
      <trkpt lat="43.95775" lon="5.05324">
        <ele>95.4</ele>
        <time>2021-11-13T08:50:43Z</time>
      </trkpt>
      <trkpt lat="43.95791" lon="5.05312">
        <ele>94.6</ele>
        <time>2021-11-13T08:50:53Z</time>
      </trkpt>
      <trkpt lat="43.95809" lon="5.053">
        <ele>95.2</ele>
        <time>2021-11-13T08:51:05Z</time>
      </trkpt>
      <trkpt lat="43.95825" lon="5.05286">
        <ele>94.8</ele>
        <time>2021-11-13T08:51:16Z</time>
      </trkpt>
      <trkpt lat="43.95841" lon="5.05272">
        <ele>95.2</ele>
        <time>2021-11-13T08:51:26Z</time>
      </trkpt>
      <trkpt lat="43.95857" lon="5.0526">
        <ele>94.8</ele>
        <time>2021-11-13T08:51:38Z</time>
      </trkpt>
      <trkpt lat="43.95873" lon="5.05246">
        <ele>95.4</ele>
        <time>2021-11-13T08:51:49Z</time>
      </trkpt>
      <trkpt lat="43.95887" lon="5.05238">
        <ele>94.6</ele>
        <time>2021-11-13T08:51:58Z</time>
      </trkpt>
      <trkpt lat="43.95895" lon="5.05234">
        <ele>94.6</ele>
        <time>2021-11-13T08:52:04Z</time>
      </trkpt>
      <trkpt lat="43.95905" lon="5.05236">
        <ele>95</ele>
        <time>2021-11-13T08:52:12Z</time>
      </trkpt>
      <trkpt lat="43.9591" lon="5.05238">
        <ele>94.8</ele>
        <time>2021-11-13T08:52:15Z</time>
      </trkpt>
      <trkpt lat="43.95919" lon="5.05239">
        <ele>94.8</ele>
        <time>2021-11-13T08:52:20Z</time>
      </trkpt>
      <trkpt lat="43.95937" lon="5.05245">
        <ele>95</ele>
        <time>2021-11-13T08:52:29Z</time>
      </trkpt>
      <trkpt lat="43.9595" lon="5.05254">
        <ele>95.4</ele>
        <time>2021-11-13T08:52:38Z</time>
      </trkpt>
      <trkpt lat="43.95961" lon="5.05262">
        <ele>94.4</ele>
        <time>2021-11-13T08:52:44Z</time>
      </trkpt>
      <trkpt lat="43.95967" lon="5.05272">
        <ele>94.4</ele>
        <time>2021-11-13T08:52:51Z</time>
      </trkpt>
      <trkpt lat="43.95971" lon="5.05276">
        <ele>94.4</ele>
        <time>2021-11-13T08:52:54Z</time>
      </trkpt>
      <trkpt lat="43.95976" lon="5.05286">
        <ele>94.6</ele>
        <time>2021-11-13T08:52:59Z</time>
      </trkpt>
      <trkpt lat="43.9598" lon="5.05296">
        <ele>94.4</ele>
        <time>2021-11-13T08:53:06Z</time>
      </trkpt>
      <trkpt lat="43.9598" lon="5.05296">
        <ele>94.2</ele>
        <time>2021-11-13T08:53:11Z</time>
      </trkpt>
      <trkpt lat="43.9598" lon="5.05305">
        <ele>94.2</ele>
        <time>2021-11-13T08:53:18Z</time>
      </trkpt>
      <trkpt lat="43.95983" lon="5.05318">
        <ele>94.8</ele>
        <time>2021-11-13T08:53:24Z</time>
      </trkpt>
      <trkpt lat="43.95985" lon="5.05322">
        <ele>95</ele>
        <time>2021-11-13T08:53:26Z</time>
      </trkpt>
      <trkpt lat="43.95995" lon="5.05345">
        <ele>94.4</ele>
        <time>2021-11-13T08:53:37Z</time>
      </trkpt>
      <trkpt lat="43.96001" lon="5.0537">
        <ele>94.8</ele>
        <time>2021-11-13T08:53:49Z</time>
      </trkpt>
      <trkpt lat="43.96008" lon="5.0539">
        <ele>95.4</ele>
        <time>2021-11-13T08:53:58Z</time>
      </trkpt>
      <trkpt lat="43.96017" lon="5.05403">
        <ele>95</ele>
        <time>2021-11-13T08:54:06Z</time>
      </trkpt>
      <trkpt lat="43.96017" lon="5.05429">
        <ele>94.6</ele>
        <time>2021-11-13T08:54:18Z</time>
      </trkpt>
      <trkpt lat="43.9602" lon="5.05457">
        <ele>95</ele>
        <time>2021-11-13T08:54:30Z</time>
      </trkpt>
      <trkpt lat="43.96021" lon="5.05463">
        <ele>95.2</ele>
        <time>2021-11-13T08:54:32Z</time>
      </trkpt>
      <trkpt lat="43.96025" lon="5.05473">
        <ele>95.2</ele>
        <time>2021-11-13T08:54:36Z</time>
      </trkpt>
      <trkpt lat="43.96027" lon="5.05489">
        <ele>94.6</ele>
        <time>2021-11-13T08:54:43Z</time>
      </trkpt>
      <trkpt lat="43.96025" lon="5.05503">
        <ele>94.6</ele>
        <time>2021-11-13T08:54:49Z</time>
      </trkpt>
      <trkpt lat="43.96024" lon="5.05512">
        <ele>95</ele>
        <time>2021-11-13T08:54:54Z</time>
      </trkpt>
      <trkpt lat="43.96024" lon="5.05515">
        <ele>95</ele>
        <time>2021-11-13T08:54:56Z</time>
      </trkpt>
      <trkpt lat="43.96024" lon="5.05519">
        <ele>95</ele>
        <time>2021-11-13T08:54:58Z</time>
      </trkpt>
      <trkpt lat="43.96024" lon="5.05532">
        <ele>94.6</ele>
        <time>2021-11-13T08:55:03Z</time>
      </trkpt>
      <trkpt lat="43.96024" lon="5.05555">
        <ele>94.8</ele>
        <time>2021-11-13T08:55:13Z</time>
      </trkpt>
      <trkpt lat="43.96025" lon="5.05558">
        <ele>94.8</ele>
        <time>2021-11-13T08:55:15Z</time>
      </trkpt>
      <trkpt lat="43.96043" lon="5.05569">
        <ele>95.4</ele>
        <time>2021-11-13T08:55:26Z</time>
      </trkpt>
      <trkpt lat="43.96048" lon="5.05567">
        <ele>94.8</ele>
        <time>2021-11-13T08:55:30Z</time>
      </trkpt>
      <trkpt lat="43.96057" lon="5.05561">
        <ele>95.2</ele>
        <time>2021-11-13T08:55:37Z</time>
      </trkpt>
      <trkpt lat="43.96062" lon="5.05566">
        <ele>95.6</ele>
        <time>2021-11-13T08:55:41Z</time>
      </trkpt>
      <trkpt lat="43.96065" lon="5.05569">
        <ele>96</ele>
        <time>2021-11-13T08:55:43Z</time>
      </trkpt>
      <trkpt lat="43.96069" lon="5.05574">
        <ele>96</ele>
        <time>2021-11-13T08:55:46Z</time>
      </trkpt>
      <trkpt lat="43.96069" lon="5.05577">
        <ele>95.6</ele>
        <time>2021-11-13T08:55:48Z</time>
      </trkpt>
      <trkpt lat="43.9606" lon="5.05574">
        <ele>95.2</ele>
        <time>2021-11-13T08:56:24Z</time>
      </trkpt>
      <trkpt lat="43.96067" lon="5.05581">
        <ele>95</ele>
        <time>2021-11-13T08:59:05Z</time>
      </trkpt>
      <trkpt lat="43.96061" lon="5.05586">
        <ele>95.8</ele>
        <time>2021-11-13T09:00:05Z</time>
      </trkpt>
      <trkpt lat="43.96059" lon="5.0559">
        <ele>96.8</ele>
        <time>2021-11-13T09:00:07Z</time>
      </trkpt>
      <trkpt lat="43.96058" lon="5.05594">
        <ele>97</ele>
        <time>2021-11-13T09:00:09Z</time>
      </trkpt>
      <trkpt lat="43.9606" lon="5.05603">
        <ele>96.6</ele>
        <time>2021-11-13T09:00:14Z</time>
      </trkpt>
      <trkpt lat="43.9606" lon="5.05607">
        <ele>96.6</ele>
        <time>2021-11-13T09:00:16Z</time>
      </trkpt>
      <trkpt lat="43.9606" lon="5.05622">
        <ele>97.2</ele>
        <time>2021-11-13T09:00:23Z</time>
      </trkpt>
      <trkpt lat="43.96059" lon="5.05627">
        <ele>97.4</ele>
        <time>2021-11-13T09:00:25Z</time>
      </trkpt>
      <trkpt lat="43.96057" lon="5.05632">
        <ele>97.2</ele>
        <time>2021-11-13T09:00:27Z</time>
      </trkpt>
      <trkpt lat="43.96057" lon="5.05634">
        <ele>97.2</ele>
        <time>2021-11-13T09:00:31Z</time>
      </trkpt>
      <trkpt lat="43.96058" lon="5.05638">
        <ele>97.4</ele>
        <time>2021-11-13T09:00:33Z</time>
      </trkpt>
      <trkpt lat="43.96057" lon="5.0564">
        <ele>97.8</ele>
        <time>2021-11-13T09:00:35Z</time>
      </trkpt>
      <trkpt lat="43.96056" lon="5.0564">
        <ele>97.8</ele>
        <time>2021-11-13T09:00:37Z</time>
      </trkpt>
      <trkpt lat="43.96053" lon="5.05641">
        <ele>97</ele>
        <time>2021-11-13T09:00:40Z</time>
      </trkpt>
      <trkpt lat="43.9605" lon="5.05643">
        <ele>96.6</ele>
        <time>2021-11-13T09:00:42Z</time>
      </trkpt>
      <trkpt lat="43.96049" lon="5.05645">
        <ele>96.2</ele>
        <time>2021-11-13T09:00:43Z</time>
      </trkpt>
      <trkpt lat="43.96047" lon="5.0565">
        <ele>95.4</ele>
        <time>2021-11-13T09:00:45Z</time>
      </trkpt>
      <trkpt lat="43.96048" lon="5.05653">
        <ele>95</ele>
        <time>2021-11-13T09:00:47Z</time>
      </trkpt>
      <trkpt lat="43.96048" lon="5.05656">
        <ele>94.8</ele>
        <time>2021-11-13T09:00:49Z</time>
      </trkpt>
      <trkpt lat="43.96048" lon="5.05666">
        <ele>95</ele>
        <time>2021-11-13T09:00:53Z</time>
      </trkpt>
      <trkpt lat="43.96045" lon="5.05673">
        <ele>95.2</ele>
        <time>2021-11-13T09:00:58Z</time>
      </trkpt>
      <trkpt lat="43.96045" lon="5.05677">
        <ele>95.4</ele>
        <time>2021-11-13T09:01:00Z</time>
      </trkpt>
      <trkpt lat="43.96045" lon="5.0568">
        <ele>95.4</ele>
        <time>2021-11-13T09:01:02Z</time>
      </trkpt>
      <trkpt lat="43.96043" lon="5.05688">
        <ele>95.6</ele>
        <time>2021-11-13T09:01:06Z</time>
      </trkpt>
      <trkpt lat="43.96043" lon="5.05692">
        <ele>95.6</ele>
        <time>2021-11-13T09:01:08Z</time>
      </trkpt>
      <trkpt lat="43.96044" lon="5.05698">
        <ele>95.8</ele>
        <time>2021-11-13T09:01:11Z</time>
      </trkpt>
      <trkpt lat="43.96045" lon="5.05704">
        <ele>96</ele>
        <time>2021-11-13T09:01:14Z</time>
      </trkpt>
      <trkpt lat="43.96043" lon="5.05716">
        <ele>96.4</ele>
        <time>2021-11-13T09:01:20Z</time>
      </trkpt>
      <trkpt lat="43.96043" lon="5.05719">
        <ele>96.4</ele>
        <time>2021-11-13T09:01:21Z</time>
      </trkpt>
      <trkpt lat="43.96042" lon="5.05728">
        <ele>96.6</ele>
        <time>2021-11-13T09:01:25Z</time>
      </trkpt>
      <trkpt lat="43.96043" lon="5.05754">
        <ele>97</ele>
        <time>2021-11-13T09:01:37Z</time>
      </trkpt>
      <trkpt lat="43.96047" lon="5.05765">
        <ele>97.4</ele>
        <time>2021-11-13T09:01:43Z</time>
      </trkpt>
      <trkpt lat="43.96046" lon="5.05773">
        <ele>97.2</ele>
        <time>2021-11-13T09:01:46Z</time>
      </trkpt>
      <trkpt lat="43.96046" lon="5.05778">
        <ele>97.4</ele>
        <time>2021-11-13T09:01:48Z</time>
      </trkpt>
      <trkpt lat="43.96049" lon="5.05784">
        <ele>97.6</ele>
        <time>2021-11-13T09:01:51Z</time>
      </trkpt>
      <trkpt lat="43.96057" lon="5.05793">
        <ele>98.4</ele>
        <time>2021-11-13T09:01:55Z</time>
      </trkpt>
      <trkpt lat="43.96057" lon="5.05794">
        <ele>98.6</ele>
        <time>2021-11-13T09:01:56Z</time>
      </trkpt>
      <trkpt lat="43.9606" lon="5.05798">
        <ele>98.6</ele>
        <time>2021-11-13T09:01:58Z</time>
      </trkpt>
      <trkpt lat="43.9606" lon="5.05806">
        <ele>99</ele>
        <time>2021-11-13T09:02:02Z</time>
      </trkpt>
      <trkpt lat="43.96059" lon="5.05813">
        <ele>99.4</ele>
        <time>2021-11-13T09:02:05Z</time>
      </trkpt>
      <trkpt lat="43.96059" lon="5.05815">
        <ele>99.8</ele>
        <time>2021-11-13T09:02:06Z</time>
      </trkpt>
      <trkpt lat="43.96061" lon="5.05821">
        <ele>100.8</ele>
        <time>2021-11-13T09:02:09Z</time>
      </trkpt>
      <trkpt lat="43.96059" lon="5.05832">
        <ele>102</ele>
        <time>2021-11-13T09:02:14Z</time>
      </trkpt>
      <trkpt lat="43.96059" lon="5.05834">
        <ele>102.2</ele>
        <time>2021-11-13T09:02:15Z</time>
      </trkpt>
      <trkpt lat="43.96059" lon="5.0584">
        <ele>102.8</ele>
        <time>2021-11-13T09:02:18Z</time>
      </trkpt>
      <trkpt lat="43.9606" lon="5.05844">
        <ele>103</ele>
        <time>2021-11-13T09:02:20Z</time>
      </trkpt>
      <trkpt lat="43.96059" lon="5.05857">
        <ele>104.2</ele>
        <time>2021-11-13T09:02:26Z</time>
      </trkpt>
      <trkpt lat="43.9606" lon="5.05861">
        <ele>104.6</ele>
        <time>2021-11-13T09:02:28Z</time>
      </trkpt>
      <trkpt lat="43.9606" lon="5.05867">
        <ele>105.2</ele>
        <time>2021-11-13T09:02:31Z</time>
      </trkpt>
      <trkpt lat="43.96059" lon="5.05878">
        <ele>106</ele>
        <time>2021-11-13T09:02:36Z</time>
      </trkpt>
      <trkpt lat="43.9606" lon="5.0588">
        <ele>106.4</ele>
        <time>2021-11-13T09:02:37Z</time>
      </trkpt>
      <trkpt lat="43.96063" lon="5.05889">
        <ele>106.8</ele>
        <time>2021-11-13T09:02:41Z</time>
      </trkpt>
      <trkpt lat="43.96061" lon="5.05893">
        <ele>106.8</ele>
        <time>2021-11-13T09:02:43Z</time>
      </trkpt>
      <trkpt lat="43.9606" lon="5.05903">
        <ele>107.4</ele>
        <time>2021-11-13T09:02:48Z</time>
      </trkpt>
      <trkpt lat="43.96062" lon="5.0591">
        <ele>108</ele>
        <time>2021-11-13T09:02:51Z</time>
      </trkpt>
      <trkpt lat="43.96061" lon="5.05919">
        <ele>108.4</ele>
        <time>2021-11-13T09:02:55Z</time>
      </trkpt>
      <trkpt lat="43.96061" lon="5.05921">
        <ele>108.6</ele>
        <time>2021-11-13T09:02:56Z</time>
      </trkpt>
      <trkpt lat="43.96062" lon="5.05927">
        <ele>109.2</ele>
        <time>2021-11-13T09:02:59Z</time>
      </trkpt>
      <trkpt lat="43.96062" lon="5.05929">
        <ele>109.4</ele>
        <time>2021-11-13T09:03:00Z</time>
      </trkpt>
      <trkpt lat="43.96062" lon="5.05937">
        <ele>110.4</ele>
        <time>2021-11-13T09:03:04Z</time>
      </trkpt>
      <trkpt lat="43.96064" lon="5.05939">
        <ele>110.6</ele>
        <time>2021-11-13T09:03:05Z</time>
      </trkpt>
      <trkpt lat="43.96066" lon="5.05944">
        <ele>110.8</ele>
        <time>2021-11-13T09:03:07Z</time>
      </trkpt>
      <trkpt lat="43.96066" lon="5.05953">
        <ele>111.4</ele>
        <time>2021-11-13T09:03:12Z</time>
      </trkpt>
      <trkpt lat="43.96066" lon="5.05955">
        <ele>111.6</ele>
        <time>2021-11-13T09:03:13Z</time>
      </trkpt>
      <trkpt lat="43.9607" lon="5.05961">
        <ele>112.4</ele>
        <time>2021-11-13T09:03:16Z</time>
      </trkpt>
      <trkpt lat="43.96071" lon="5.05964">
        <ele>112.6</ele>
        <time>2021-11-13T09:03:18Z</time>
      </trkpt>
      <trkpt lat="43.96073" lon="5.05972">
        <ele>113.6</ele>
        <time>2021-11-13T09:03:23Z</time>
      </trkpt>
      <trkpt lat="43.96074" lon="5.05973">
        <ele>113.8</ele>
        <time>2021-11-13T09:03:24Z</time>
      </trkpt>
      <trkpt lat="43.96077" lon="5.05976">
        <ele>114.4</ele>
        <time>2021-11-13T09:03:27Z</time>
      </trkpt>
      <trkpt lat="43.96077" lon="5.05981">
        <ele>115</ele>
        <time>2021-11-13T09:03:30Z</time>
      </trkpt>
      <trkpt lat="43.96077" lon="5.05983">
        <ele>115.4</ele>
        <time>2021-11-13T09:03:31Z</time>
      </trkpt>
      <trkpt lat="43.96079" lon="5.05989">
        <ele>116.2</ele>
        <time>2021-11-13T09:03:34Z</time>
      </trkpt>
      <trkpt lat="43.96082" lon="5.05993">
        <ele>117.2</ele>
        <time>2021-11-13T09:03:37Z</time>
      </trkpt>
      <trkpt lat="43.96085" lon="5.06003">
        <ele>118.4</ele>
        <time>2021-11-13T09:03:43Z</time>
      </trkpt>
      <trkpt lat="43.96086" lon="5.06005">
        <ele>118.6</ele>
        <time>2021-11-13T09:03:44Z</time>
      </trkpt>
      <trkpt lat="43.96086" lon="5.0601">
        <ele>119.4</ele>
        <time>2021-11-13T09:03:47Z</time>
      </trkpt>
      <trkpt lat="43.96086" lon="5.06021">
        <ele>120.6</ele>
        <time>2021-11-13T09:03:53Z</time>
      </trkpt>
      <trkpt lat="43.96087" lon="5.0603">
        <ele>121.8</ele>
        <time>2021-11-13T09:03:58Z</time>
      </trkpt>
      <trkpt lat="43.9609" lon="5.06035">
        <ele>122.6</ele>
        <time>2021-11-13T09:04:01Z</time>
      </trkpt>
      <trkpt lat="43.96092" lon="5.06037">
        <ele>122.8</ele>
        <time>2021-11-13T09:04:02Z</time>
      </trkpt>
      <trkpt lat="43.96094" lon="5.06041">
        <ele>123.2</ele>
        <time>2021-11-13T09:04:04Z</time>
      </trkpt>
      <trkpt lat="43.96092" lon="5.06052">
        <ele>123.8</ele>
        <time>2021-11-13T09:04:09Z</time>
      </trkpt>
      <trkpt lat="43.96092" lon="5.06057">
        <ele>125</ele>
        <time>2021-11-13T09:04:12Z</time>
      </trkpt>
      <trkpt lat="43.96096" lon="5.06068">
        <ele>126</ele>
        <time>2021-11-13T09:04:18Z</time>
      </trkpt>
      <trkpt lat="43.96097" lon="5.0607">
        <ele>126.2</ele>
        <time>2021-11-13T09:04:19Z</time>
      </trkpt>
      <trkpt lat="43.96103" lon="5.06074">
        <ele>127.4</ele>
        <time>2021-11-13T09:04:24Z</time>
      </trkpt>
      <trkpt lat="43.96109" lon="5.06079">
        <ele>128.6</ele>
        <time>2021-11-13T09:04:28Z</time>
      </trkpt>
      <trkpt lat="43.96112" lon="5.06082">
        <ele>129.2</ele>
        <time>2021-11-13T09:04:31Z</time>
      </trkpt>
      <trkpt lat="43.96116" lon="5.06087">
        <ele>129.8</ele>
        <time>2021-11-13T09:04:35Z</time>
      </trkpt>
      <trkpt lat="43.96123" lon="5.06092">
        <ele>131</ele>
        <time>2021-11-13T09:04:40Z</time>
      </trkpt>
      <trkpt lat="43.9613" lon="5.06101">
        <ele>132</ele>
        <time>2021-11-13T09:04:46Z</time>
      </trkpt>
      <trkpt lat="43.96132" lon="5.06106">
        <ele>132.4</ele>
        <time>2021-11-13T09:04:50Z</time>
      </trkpt>
      <trkpt lat="43.96134" lon="5.06109">
        <ele>133</ele>
        <time>2021-11-13T09:04:52Z</time>
      </trkpt>
      <trkpt lat="43.96144" lon="5.06121">
        <ele>134</ele>
        <time>2021-11-13T09:05:01Z</time>
      </trkpt>
      <trkpt lat="43.96152" lon="5.06135">
        <ele>135.2</ele>
        <time>2021-11-13T09:05:10Z</time>
      </trkpt>
      <trkpt lat="43.96165" lon="5.06153">
        <ele>136.4</ele>
        <time>2021-11-13T09:05:20Z</time>
      </trkpt>
      <trkpt lat="43.96168" lon="5.06158">
        <ele>136.8</ele>
        <time>2021-11-13T09:05:23Z</time>
      </trkpt>
      <trkpt lat="43.96171" lon="5.06165">
        <ele>137.4</ele>
        <time>2021-11-13T09:05:27Z</time>
      </trkpt>
      <trkpt lat="43.96172" lon="5.06166">
        <ele>137.4</ele>
        <time>2021-11-13T09:05:28Z</time>
      </trkpt>
      <trkpt lat="43.96175" lon="5.0617">
        <ele>137.8</ele>
        <time>2021-11-13T09:05:30Z</time>
      </trkpt>
      <trkpt lat="43.96179" lon="5.06175">
        <ele>138.6</ele>
        <time>2021-11-13T09:05:36Z</time>
      </trkpt>
      <trkpt lat="43.96185" lon="5.06177">
        <ele>139.6</ele>
        <time>2021-11-13T09:05:42Z</time>
      </trkpt>
      <trkpt lat="43.9619" lon="5.06179">
        <ele>141</ele>
        <time>2021-11-13T09:05:46Z</time>
      </trkpt>
      <trkpt lat="43.96195" lon="5.0618">
        <ele>142</ele>
        <time>2021-11-13T09:05:50Z</time>
      </trkpt>
      <trkpt lat="43.96203" lon="5.06182">
        <ele>142.8</ele>
        <time>2021-11-13T09:05:56Z</time>
      </trkpt>
      <trkpt lat="43.96202" lon="5.06183">
        <ele>143</ele>
        <time>2021-11-13T09:06:02Z</time>
      </trkpt>
      <trkpt lat="43.96205" lon="5.06185">
        <ele>143</ele>
        <time>2021-11-13T09:06:05Z</time>
      </trkpt>
      <trkpt lat="43.96211" lon="5.06193">
        <ele>144</ele>
        <time>2021-11-13T09:06:12Z</time>
      </trkpt>
      <trkpt lat="43.96213" lon="5.06195">
        <ele>144.2</ele>
        <time>2021-11-13T09:06:14Z</time>
      </trkpt>
      <trkpt lat="43.96217" lon="5.06198">
        <ele>145.2</ele>
        <time>2021-11-13T09:06:18Z</time>
      </trkpt>
      <trkpt lat="43.96218" lon="5.06198">
        <ele>145.4</ele>
        <time>2021-11-13T09:06:19Z</time>
      </trkpt>
      <trkpt lat="43.96222" lon="5.06202">
        <ele>146</ele>
        <time>2021-11-13T09:06:22Z</time>
      </trkpt>
      <trkpt lat="43.96224" lon="5.06203">
        <ele>146.4</ele>
        <time>2021-11-13T09:06:24Z</time>
      </trkpt>
      <trkpt lat="43.96225" lon="5.06204">
        <ele>146.6</ele>
        <time>2021-11-13T09:06:25Z</time>
      </trkpt>
      <trkpt lat="43.96227" lon="5.06207">
        <ele>146.8</ele>
        <time>2021-11-13T09:06:27Z</time>
      </trkpt>
      <trkpt lat="43.96234" lon="5.06214">
        <ele>147.4</ele>
        <time>2021-11-13T09:06:32Z</time>
      </trkpt>
      <trkpt lat="43.96242" lon="5.06224">
        <ele>148.4</ele>
        <time>2021-11-13T09:06:39Z</time>
      </trkpt>
      <trkpt lat="43.96244" lon="5.06225">
        <ele>148.8</ele>
        <time>2021-11-13T09:06:41Z</time>
      </trkpt>
      <trkpt lat="43.96249" lon="5.06231">
        <ele>149.2</ele>
        <time>2021-11-13T09:06:46Z</time>
      </trkpt>
      <trkpt lat="43.9625" lon="5.06234">
        <ele>149.4</ele>
        <time>2021-11-13T09:06:48Z</time>
      </trkpt>
      <trkpt lat="43.9625" lon="5.06236">
        <ele>149.6</ele>
        <time>2021-11-13T09:06:49Z</time>
      </trkpt>
      <trkpt lat="43.9625" lon="5.06252">
        <ele>149.8</ele>
        <time>2021-11-13T09:07:00Z</time>
      </trkpt>
      <trkpt lat="43.96249" lon="5.06252">
        <ele>149.8</ele>
        <time>2021-11-13T09:07:47Z</time>
      </trkpt>
      <trkpt lat="43.96254" lon="5.06259">
        <ele>150.6</ele>
        <time>2021-11-13T09:07:52Z</time>
      </trkpt>
      <trkpt lat="43.96254" lon="5.0626">
        <ele>150.8</ele>
        <time>2021-11-13T09:07:53Z</time>
      </trkpt>
      <trkpt lat="43.9626" lon="5.06266">
        <ele>151.8</ele>
        <time>2021-11-13T09:07:59Z</time>
      </trkpt>
      <trkpt lat="43.96261" lon="5.06268">
        <ele>151.8</ele>
        <time>2021-11-13T09:08:00Z</time>
      </trkpt>
      <trkpt lat="43.96269" lon="5.06279">
        <ele>152.6</ele>
        <time>2021-11-13T09:08:07Z</time>
      </trkpt>
      <trkpt lat="43.96271" lon="5.06282">
        <ele>152.8</ele>
        <time>2021-11-13T09:08:09Z</time>
      </trkpt>
      <trkpt lat="43.96272" lon="5.06283">
        <ele>153</ele>
        <time>2021-11-13T09:08:10Z</time>
      </trkpt>
      <trkpt lat="43.96271" lon="5.06283">
        <ele>153.2</ele>
        <time>2021-11-13T09:08:12Z</time>
      </trkpt>
      <trkpt lat="43.96268" lon="5.06278">
        <ele>153.2</ele>
        <time>2021-11-13T09:08:17Z</time>
      </trkpt>
      <trkpt lat="43.96256" lon="5.06266">
        <ele>151.8</ele>
        <time>2021-11-13T09:08:27Z</time>
      </trkpt>
      <trkpt lat="43.9625" lon="5.06259">
        <ele>150.8</ele>
        <time>2021-11-13T09:08:31Z</time>
      </trkpt>
      <trkpt lat="43.96239" lon="5.06257">
        <ele>149.6</ele>
        <time>2021-11-13T09:08:39Z</time>
      </trkpt>
      <trkpt lat="43.96234" lon="5.06265">
        <ele>148.6</ele>
        <time>2021-11-13T09:08:45Z</time>
      </trkpt>
      <trkpt lat="43.96233" lon="5.06269">
        <ele>148.2</ele>
        <time>2021-11-13T09:08:48Z</time>
      </trkpt>
      <trkpt lat="43.96229" lon="5.06277">
        <ele>147.8</ele>
        <time>2021-11-13T09:08:54Z</time>
      </trkpt>
      <trkpt lat="43.96229" lon="5.06279">
        <ele>147.6</ele>
        <time>2021-11-13T09:08:55Z</time>
      </trkpt>
      <trkpt lat="43.96228" lon="5.06285">
        <ele>147</ele>
        <time>2021-11-13T09:08:58Z</time>
      </trkpt>
      <trkpt lat="43.96228" lon="5.06293">
        <ele>147</ele>
        <time>2021-11-13T09:09:01Z</time>
      </trkpt>
      <trkpt lat="43.96227" lon="5.06298">
        <ele>147.4</ele>
        <time>2021-11-13T09:09:03Z</time>
      </trkpt>
      <trkpt lat="43.96219" lon="5.06302">
        <ele>148.2</ele>
        <time>2021-11-13T09:09:11Z</time>
      </trkpt>
      <trkpt lat="43.96218" lon="5.06304">
        <ele>148.6</ele>
        <time>2021-11-13T09:09:13Z</time>
      </trkpt>
      <trkpt lat="43.96217" lon="5.06306">
        <ele>148.6</ele>
        <time>2021-11-13T09:09:14Z</time>
      </trkpt>
      <trkpt lat="43.96215" lon="5.06311">
        <ele>149</ele>
        <time>2021-11-13T09:09:17Z</time>
      </trkpt>
      <trkpt lat="43.96215" lon="5.06312">
        <ele>149.2</ele>
        <time>2021-11-13T09:09:18Z</time>
      </trkpt>
      <trkpt lat="43.96212" lon="5.06317">
        <ele>149.6</ele>
        <time>2021-11-13T09:09:20Z</time>
      </trkpt>
      <trkpt lat="43.96206" lon="5.06328">
        <ele>150.6</ele>
        <time>2021-11-13T09:09:25Z</time>
      </trkpt>
      <trkpt lat="43.96206" lon="5.06329">
        <ele>150.8</ele>
        <time>2021-11-13T09:09:26Z</time>
      </trkpt>
      <trkpt lat="43.96205" lon="5.06329">
        <ele>151</ele>
        <time>2021-11-13T09:09:27Z</time>
      </trkpt>
      <trkpt lat="43.96194" lon="5.06337">
        <ele>150.8</ele>
        <time>2021-11-13T09:09:37Z</time>
      </trkpt>
      <trkpt lat="43.96192" lon="5.06342">
        <ele>150.8</ele>
        <time>2021-11-13T09:09:40Z</time>
      </trkpt>
      <trkpt lat="43.96191" lon="5.06346">
        <ele>150.8</ele>
        <time>2021-11-13T09:09:42Z</time>
      </trkpt>
      <trkpt lat="43.9619" lon="5.06352">
        <ele>151</ele>
        <time>2021-11-13T09:09:45Z</time>
      </trkpt>
      <trkpt lat="43.96191" lon="5.06361">
        <ele>151.8</ele>
        <time>2021-11-13T09:09:49Z</time>
      </trkpt>
      <trkpt lat="43.96192" lon="5.06366">
        <ele>152</ele>
        <time>2021-11-13T09:09:51Z</time>
      </trkpt>
      <trkpt lat="43.96188" lon="5.06383">
        <ele>152.4</ele>
        <time>2021-11-13T09:09:58Z</time>
      </trkpt>
      <trkpt lat="43.96191" lon="5.0639">
        <ele>152.6</ele>
        <time>2021-11-13T09:10:02Z</time>
      </trkpt>
      <trkpt lat="43.9619" lon="5.06402">
        <ele>152.6</ele>
        <time>2021-11-13T09:10:08Z</time>
      </trkpt>
      <trkpt lat="43.96189" lon="5.06409">
        <ele>152.8</ele>
        <time>2021-11-13T09:10:11Z</time>
      </trkpt>
      <trkpt lat="43.96189" lon="5.0641">
        <ele>153</ele>
        <time>2021-11-13T09:10:12Z</time>
      </trkpt>
      <trkpt lat="43.9619" lon="5.06418">
        <ele>153.4</ele>
        <time>2021-11-13T09:10:16Z</time>
      </trkpt>
      <trkpt lat="43.96189" lon="5.06422">
        <ele>153.6</ele>
        <time>2021-11-13T09:10:18Z</time>
      </trkpt>
      <trkpt lat="43.96184" lon="5.06442">
        <ele>154.2</ele>
        <time>2021-11-13T09:10:25Z</time>
      </trkpt>
      <trkpt lat="43.96185" lon="5.06444">
        <ele>154.4</ele>
        <time>2021-11-13T09:10:26Z</time>
      </trkpt>
      <trkpt lat="43.96185" lon="5.06451">
        <ele>154.4</ele>
        <time>2021-11-13T09:10:30Z</time>
      </trkpt>
      <trkpt lat="43.96184" lon="5.06476">
        <ele>155</ele>
        <time>2021-11-13T09:10:39Z</time>
      </trkpt>
      <trkpt lat="43.96186" lon="5.06481">
        <ele>155.2</ele>
        <time>2021-11-13T09:10:41Z</time>
      </trkpt>
      <trkpt lat="43.96186" lon="5.06487">
        <ele>155.4</ele>
        <time>2021-11-13T09:10:43Z</time>
      </trkpt>
      <trkpt lat="43.9618" lon="5.06508">
        <ele>155</ele>
        <time>2021-11-13T09:10:52Z</time>
      </trkpt>
      <trkpt lat="43.9618" lon="5.06516">
        <ele>154.6</ele>
        <time>2021-11-13T09:10:55Z</time>
      </trkpt>
      <trkpt lat="43.96179" lon="5.0652">
        <ele>154.2</ele>
        <time>2021-11-13T09:10:57Z</time>
      </trkpt>
      <trkpt lat="43.96176" lon="5.0653">
        <ele>153</ele>
        <time>2021-11-13T09:11:04Z</time>
      </trkpt>
      <trkpt lat="43.96176" lon="5.06533">
        <ele>152.8</ele>
        <time>2021-11-13T09:11:07Z</time>
      </trkpt>
      <trkpt lat="43.96171" lon="5.06546">
        <ele>153</ele>
        <time>2021-11-13T09:11:15Z</time>
      </trkpt>
      <trkpt lat="43.96163" lon="5.06568">
        <ele>152.4</ele>
        <time>2021-11-13T09:11:24Z</time>
      </trkpt>
      <trkpt lat="43.96157" lon="5.06584">
        <ele>152.4</ele>
        <time>2021-11-13T09:11:31Z</time>
      </trkpt>
      <trkpt lat="43.96156" lon="5.06589">
        <ele>152.4</ele>
        <time>2021-11-13T09:11:33Z</time>
      </trkpt>
      <trkpt lat="43.96156" lon="5.06594">
        <ele>152.4</ele>
        <time>2021-11-13T09:11:35Z</time>
      </trkpt>
      <trkpt lat="43.96156" lon="5.06597">
        <ele>152</ele>
        <time>2021-11-13T09:11:37Z</time>
      </trkpt>
      <trkpt lat="43.96156" lon="5.06598">
        <ele>151.8</ele>
        <time>2021-11-13T09:11:38Z</time>
      </trkpt>
      <trkpt lat="43.96149" lon="5.06613">
        <ele>152.2</ele>
        <time>2021-11-13T09:11:45Z</time>
      </trkpt>
      <trkpt lat="43.96148" lon="5.06618">
        <ele>152.2</ele>
        <time>2021-11-13T09:11:47Z</time>
      </trkpt>
      <trkpt lat="43.96146" lon="5.06623">
        <ele>152.2</ele>
        <time>2021-11-13T09:11:49Z</time>
      </trkpt>
      <trkpt lat="43.96146" lon="5.06627">
        <ele>152.2</ele>
        <time>2021-11-13T09:11:51Z</time>
      </trkpt>
      <trkpt lat="43.96149" lon="5.06633">
        <ele>151.8</ele>
        <time>2021-11-13T09:11:55Z</time>
      </trkpt>
      <trkpt lat="43.96147" lon="5.06642">
        <ele>150.8</ele>
        <time>2021-11-13T09:11:59Z</time>
      </trkpt>
      <trkpt lat="43.9614" lon="5.06659">
        <ele>149.6</ele>
        <time>2021-11-13T09:12:06Z</time>
      </trkpt>
      <trkpt lat="43.96134" lon="5.06684">
        <ele>150</ele>
        <time>2021-11-13T09:12:17Z</time>
      </trkpt>
      <trkpt lat="43.96124" lon="5.06704">
        <ele>148.6</ele>
        <time>2021-11-13T09:12:29Z</time>
      </trkpt>
      <trkpt lat="43.96123" lon="5.0671">
        <ele>148.2</ele>
        <time>2021-11-13T09:12:32Z</time>
      </trkpt>
      <trkpt lat="43.96121" lon="5.06716">
        <ele>147.4</ele>
        <time>2021-11-13T09:12:35Z</time>
      </trkpt>
      <trkpt lat="43.96122" lon="5.0673">
        <ele>146.6</ele>
        <time>2021-11-13T09:12:42Z</time>
      </trkpt>
      <trkpt lat="43.96123" lon="5.06732">
        <ele>146.4</ele>
        <time>2021-11-13T09:12:43Z</time>
      </trkpt>
      <trkpt lat="43.96123" lon="5.06734">
        <ele>146.2</ele>
        <time>2021-11-13T09:12:44Z</time>
      </trkpt>
      <trkpt lat="43.96123" lon="5.06743">
        <ele>145.6</ele>
        <time>2021-11-13T09:12:48Z</time>
      </trkpt>
      <trkpt lat="43.96123" lon="5.06748">
        <ele>145.6</ele>
        <time>2021-11-13T09:12:50Z</time>
      </trkpt>
      <trkpt lat="43.96123" lon="5.0675">
        <ele>145.6</ele>
        <time>2021-11-13T09:12:51Z</time>
      </trkpt>
      <trkpt lat="43.96128" lon="5.06761">
        <ele>146</ele>
        <time>2021-11-13T09:12:56Z</time>
      </trkpt>
      <trkpt lat="43.96132" lon="5.06786">
        <ele>146.4</ele>
        <time>2021-11-13T09:13:08Z</time>
      </trkpt>
      <trkpt lat="43.96129" lon="5.06799">
        <ele>146.8</ele>
        <time>2021-11-13T09:13:15Z</time>
      </trkpt>
      <trkpt lat="43.96133" lon="5.0682">
        <ele>147.4</ele>
        <time>2021-11-13T09:13:27Z</time>
      </trkpt>
      <trkpt lat="43.96132" lon="5.06834">
        <ele>147.4</ele>
        <time>2021-11-13T09:13:33Z</time>
      </trkpt>
      <trkpt lat="43.9613" lon="5.06846">
        <ele>147.8</ele>
        <time>2021-11-13T09:13:38Z</time>
      </trkpt>
      <trkpt lat="43.9613" lon="5.06858">
        <ele>148</ele>
        <time>2021-11-13T09:13:43Z</time>
      </trkpt>
      <trkpt lat="43.96131" lon="5.06861">
        <ele>148</ele>
        <time>2021-11-13T09:13:45Z</time>
      </trkpt>
      <trkpt lat="43.96127" lon="5.06888">
        <ele>148.4</ele>
        <time>2021-11-13T09:13:56Z</time>
      </trkpt>
      <trkpt lat="43.96128" lon="5.06893">
        <ele>148.6</ele>
        <time>2021-11-13T09:13:58Z</time>
      </trkpt>
      <trkpt lat="43.96133" lon="5.06913">
        <ele>148.8</ele>
        <time>2021-11-13T09:14:08Z</time>
      </trkpt>
      <trkpt lat="43.96129" lon="5.06926">
        <ele>149.6</ele>
        <time>2021-11-13T09:14:13Z</time>
      </trkpt>
      <trkpt lat="43.9613" lon="5.0693">
        <ele>150.4</ele>
        <time>2021-11-13T09:14:16Z</time>
      </trkpt>
      <trkpt lat="43.96129" lon="5.06932">
        <ele>150.6</ele>
        <time>2021-11-13T09:14:18Z</time>
      </trkpt>
      <trkpt lat="43.96126" lon="5.06943">
        <ele>150.2</ele>
        <time>2021-11-13T09:14:23Z</time>
      </trkpt>
      <trkpt lat="43.96125" lon="5.06951">
        <ele>150</ele>
        <time>2021-11-13T09:14:27Z</time>
      </trkpt>
      <trkpt lat="43.96122" lon="5.06976">
        <ele>150.6</ele>
        <time>2021-11-13T09:14:39Z</time>
      </trkpt>
      <trkpt lat="43.96122" lon="5.06982">
        <ele>150.6</ele>
        <time>2021-11-13T09:14:42Z</time>
      </trkpt>
      <trkpt lat="43.96118" lon="5.06997">
        <ele>151.2</ele>
        <time>2021-11-13T09:14:49Z</time>
      </trkpt>
      <trkpt lat="43.9612" lon="5.07012">
        <ele>151.6</ele>
        <time>2021-11-13T09:14:57Z</time>
      </trkpt>
      <trkpt lat="43.96135" lon="5.07022">
        <ele>152.6</ele>
        <time>2021-11-13T09:15:09Z</time>
      </trkpt>
      <trkpt lat="43.96154" lon="5.07027">
        <ele>153.2</ele>
        <time>2021-11-13T09:15:22Z</time>
      </trkpt>
      <trkpt lat="43.96162" lon="5.0703">
        <ele>153.8</ele>
        <time>2021-11-13T09:15:27Z</time>
      </trkpt>
      <trkpt lat="43.96173" lon="5.07039">
        <ele>154.8</ele>
        <time>2021-11-13T09:15:36Z</time>
      </trkpt>
      <trkpt lat="43.96175" lon="5.07041">
        <ele>155</ele>
        <time>2021-11-13T09:15:38Z</time>
      </trkpt>
      <trkpt lat="43.96183" lon="5.07048">
        <ele>155.8</ele>
        <time>2021-11-13T09:15:46Z</time>
      </trkpt>
      <trkpt lat="43.96194" lon="5.07058">
        <ele>156</ele>
        <time>2021-11-13T09:15:54Z</time>
      </trkpt>
      <trkpt lat="43.96198" lon="5.0706">
        <ele>156.4</ele>
        <time>2021-11-13T09:15:57Z</time>
      </trkpt>
      <trkpt lat="43.96203" lon="5.07065">
        <ele>156.6</ele>
        <time>2021-11-13T09:16:01Z</time>
      </trkpt>
      <trkpt lat="43.96205" lon="5.07067">
        <ele>157</ele>
        <time>2021-11-13T09:16:03Z</time>
      </trkpt>
      <trkpt lat="43.96221" lon="5.07081">
        <ele>157.4</ele>
        <time>2021-11-13T09:16:13Z</time>
      </trkpt>
      <trkpt lat="43.96229" lon="5.07088">
        <ele>158</ele>
        <time>2021-11-13T09:16:19Z</time>
      </trkpt>
      <trkpt lat="43.96243" lon="5.07098">
        <ele>159</ele>
        <time>2021-11-13T09:16:29Z</time>
      </trkpt>
      <trkpt lat="43.96255" lon="5.07109">
        <ele>160.2</ele>
        <time>2021-11-13T09:16:36Z</time>
      </trkpt>
      <trkpt lat="43.96268" lon="5.07119">
        <ele>160.8</ele>
        <time>2021-11-13T09:16:47Z</time>
      </trkpt>
      <trkpt lat="43.96271" lon="5.07121">
        <ele>161</ele>
        <time>2021-11-13T09:16:49Z</time>
      </trkpt>
      <trkpt lat="43.96272" lon="5.07123">
        <ele>161.2</ele>
        <time>2021-11-13T09:16:50Z</time>
      </trkpt>
      <trkpt lat="43.96286" lon="5.0714">
        <ele>162.2</ele>
        <time>2021-11-13T09:17:02Z</time>
      </trkpt>
      <trkpt lat="43.96289" lon="5.07142">
        <ele>162.4</ele>
        <time>2021-11-13T09:17:04Z</time>
      </trkpt>
      <trkpt lat="43.96293" lon="5.07146">
        <ele>163.2</ele>
        <time>2021-11-13T09:17:08Z</time>
      </trkpt>
      <trkpt lat="43.96293" lon="5.0715">
        <ele>163.4</ele>
        <time>2021-11-13T09:17:10Z</time>
      </trkpt>
      <trkpt lat="43.96291" lon="5.07153">
        <ele>163.8</ele>
        <time>2021-11-13T09:17:13Z</time>
      </trkpt>
      <trkpt lat="43.96285" lon="5.07154">
        <ele>164.4</ele>
        <time>2021-11-13T09:17:16Z</time>
      </trkpt>
      <trkpt lat="43.9628" lon="5.07154">
        <ele>164.6</ele>
        <time>2021-11-13T09:17:22Z</time>
      </trkpt>
      <trkpt lat="43.96276" lon="5.07155">
        <ele>165</ele>
        <time>2021-11-13T09:17:25Z</time>
      </trkpt>
      <trkpt lat="43.96272" lon="5.07157">
        <ele>165.6</ele>
        <time>2021-11-13T09:17:28Z</time>
      </trkpt>
      <trkpt lat="43.96263" lon="5.07157">
        <ele>166.8</ele>
        <time>2021-11-13T09:17:37Z</time>
      </trkpt>
      <trkpt lat="43.96262" lon="5.07157">
        <ele>166.8</ele>
        <time>2021-11-13T09:17:38Z</time>
      </trkpt>
      <trkpt lat="43.9626" lon="5.07156">
        <ele>167</ele>
        <time>2021-11-13T09:17:40Z</time>
      </trkpt>
      <trkpt lat="43.96256" lon="5.07156">
        <ele>167.8</ele>
        <time>2021-11-13T09:17:43Z</time>
      </trkpt>
      <trkpt lat="43.96244" lon="5.0716">
        <ele>168.8</ele>
        <time>2021-11-13T09:17:52Z</time>
      </trkpt>
      <trkpt lat="43.96233" lon="5.0717">
        <ele>170</ele>
        <time>2021-11-13T09:17:59Z</time>
      </trkpt>
      <trkpt lat="43.96222" lon="5.07183">
        <ele>171</ele>
        <time>2021-11-13T09:18:10Z</time>
      </trkpt>
      <trkpt lat="43.96222" lon="5.07184">
        <ele>171.2</ele>
        <time>2021-11-13T09:18:11Z</time>
      </trkpt>
      <trkpt lat="43.96213" lon="5.07206">
        <ele>172.2</ele>
        <time>2021-11-13T09:18:24Z</time>
      </trkpt>
      <trkpt lat="43.962" lon="5.07225">
        <ele>173.2</ele>
        <time>2021-11-13T09:18:36Z</time>
      </trkpt>
      <trkpt lat="43.96199" lon="5.07227">
        <ele>173.2</ele>
        <time>2021-11-13T09:18:37Z</time>
      </trkpt>
      <trkpt lat="43.96196" lon="5.07242">
        <ele>174.4</ele>
        <time>2021-11-13T09:18:46Z</time>
      </trkpt>
      <trkpt lat="43.96194" lon="5.07252">
        <ele>174.8</ele>
        <time>2021-11-13T09:18:50Z</time>
      </trkpt>
      <trkpt lat="43.96186" lon="5.07275">
        <ele>175.2</ele>
        <time>2021-11-13T09:18:59Z</time>
      </trkpt>
      <trkpt lat="43.96186" lon="5.07289">
        <ele>175.6</ele>
        <time>2021-11-13T09:19:04Z</time>
      </trkpt>
      <trkpt lat="43.96186" lon="5.07301">
        <ele>175.8</ele>
        <time>2021-11-13T09:19:11Z</time>
      </trkpt>
      <trkpt lat="43.96187" lon="5.07304">
        <ele>176</ele>
        <time>2021-11-13T09:19:14Z</time>
      </trkpt>
      <trkpt lat="43.96187" lon="5.07309">
        <ele>176.4</ele>
        <time>2021-11-13T09:19:17Z</time>
      </trkpt>
      <trkpt lat="43.9619" lon="5.07317">
        <ele>176.6</ele>
        <time>2021-11-13T09:19:20Z</time>
      </trkpt>
      <trkpt lat="43.96195" lon="5.07326">
        <ele>177.4</ele>
        <time>2021-11-13T09:19:24Z</time>
      </trkpt>
      <trkpt lat="43.96198" lon="5.07337">
        <ele>177.4</ele>
        <time>2021-11-13T09:19:30Z</time>
      </trkpt>
      <trkpt lat="43.96201" lon="5.07351">
        <ele>177.6</ele>
        <time>2021-11-13T09:19:37Z</time>
      </trkpt>
      <trkpt lat="43.96211" lon="5.07367">
        <ele>178.2</ele>
        <time>2021-11-13T09:19:46Z</time>
      </trkpt>
      <trkpt lat="43.96214" lon="5.07372">
        <ele>178.2</ele>
        <time>2021-11-13T09:19:49Z</time>
      </trkpt>
      <trkpt lat="43.96221" lon="5.07393">
        <ele>178.8</ele>
        <time>2021-11-13T09:19:59Z</time>
      </trkpt>
      <trkpt lat="43.96226" lon="5.074">
        <ele>179.4</ele>
        <time>2021-11-13T09:20:03Z</time>
      </trkpt>
      <trkpt lat="43.96228" lon="5.07403">
        <ele>179.2</ele>
        <time>2021-11-13T09:20:05Z</time>
      </trkpt>
      <trkpt lat="43.96229" lon="5.07416">
        <ele>179.2</ele>
        <time>2021-11-13T09:20:10Z</time>
      </trkpt>
      <trkpt lat="43.96229" lon="5.07419">
        <ele>179.2</ele>
        <time>2021-11-13T09:20:12Z</time>
      </trkpt>
      <trkpt lat="43.96238" lon="5.07441">
        <ele>179.8</ele>
        <time>2021-11-13T09:20:22Z</time>
      </trkpt>
      <trkpt lat="43.96241" lon="5.07452">
        <ele>179.6</ele>
        <time>2021-11-13T09:20:29Z</time>
      </trkpt>
      <trkpt lat="43.96245" lon="5.07464">
        <ele>179.8</ele>
        <time>2021-11-13T09:20:36Z</time>
      </trkpt>
      <trkpt lat="43.96247" lon="5.07467">
        <ele>180</ele>
        <time>2021-11-13T09:20:37Z</time>
      </trkpt>
      <trkpt lat="43.96256" lon="5.07482">
        <ele>180.2</ele>
        <time>2021-11-13T09:20:44Z</time>
      </trkpt>
      <trkpt lat="43.96257" lon="5.07488">
        <ele>179.8</ele>
        <time>2021-11-13T09:20:48Z</time>
      </trkpt>
      <trkpt lat="43.96258" lon="5.0749">
        <ele>180.2</ele>
        <time>2021-11-13T09:22:49Z</time>
      </trkpt>
      <trkpt lat="43.96261" lon="5.07496">
        <ele>180.2</ele>
        <time>2021-11-13T09:24:07Z</time>
      </trkpt>
      <trkpt lat="43.96267" lon="5.07502">
        <ele>181</ele>
        <time>2021-11-13T09:24:12Z</time>
      </trkpt>
      <trkpt lat="43.96282" lon="5.07515">
        <ele>181.6</ele>
        <time>2021-11-13T09:24:23Z</time>
      </trkpt>
      <trkpt lat="43.96283" lon="5.07515">
        <ele>181.6</ele>
        <time>2021-11-13T09:24:24Z</time>
      </trkpt>
      <trkpt lat="43.96287" lon="5.07517">
        <ele>182</ele>
        <time>2021-11-13T09:24:27Z</time>
      </trkpt>
      <trkpt lat="43.96289" lon="5.0752">
        <ele>182</ele>
        <time>2021-11-13T09:24:29Z</time>
      </trkpt>
      <trkpt lat="43.96306" lon="5.07528">
        <ele>183.2</ele>
        <time>2021-11-13T09:24:40Z</time>
      </trkpt>
      <trkpt lat="43.96307" lon="5.07529">
        <ele>183.2</ele>
        <time>2021-11-13T09:24:42Z</time>
      </trkpt>
      <trkpt lat="43.96309" lon="5.0753">
        <ele>183.4</ele>
        <time>2021-11-13T09:24:44Z</time>
      </trkpt>
      <trkpt lat="43.96315" lon="5.07535">
        <ele>183.6</ele>
        <time>2021-11-13T09:24:48Z</time>
      </trkpt>
      <trkpt lat="43.9633" lon="5.07541">
        <ele>183.8</ele>
        <time>2021-11-13T09:24:57Z</time>
      </trkpt>
      <trkpt lat="43.96336" lon="5.07545">
        <ele>183.4</ele>
        <time>2021-11-13T09:25:03Z</time>
      </trkpt>
      <trkpt lat="43.96341" lon="5.07551">
        <ele>183</ele>
        <time>2021-11-13T09:25:07Z</time>
      </trkpt>
      <trkpt lat="43.96343" lon="5.07554">
        <ele>182.6</ele>
        <time>2021-11-13T09:25:09Z</time>
      </trkpt>
      <trkpt lat="43.96342" lon="5.07564">
        <ele>182.6</ele>
        <time>2021-11-13T09:25:14Z</time>
      </trkpt>
      <trkpt lat="43.96342" lon="5.07572">
        <ele>183</ele>
        <time>2021-11-13T09:25:17Z</time>
      </trkpt>
      <trkpt lat="43.96339" lon="5.07577">
        <ele>184.4</ele>
        <time>2021-11-13T09:25:21Z</time>
      </trkpt>
      <trkpt lat="43.96334" lon="5.07587">
        <ele>185.6</ele>
        <time>2021-11-13T09:25:28Z</time>
      </trkpt>
      <trkpt lat="43.96331" lon="5.07592">
        <ele>186.6</ele>
        <time>2021-11-13T09:25:32Z</time>
      </trkpt>
      <trkpt lat="43.9633" lon="5.07594">
        <ele>187.2</ele>
        <time>2021-11-13T09:25:34Z</time>
      </trkpt>
      <trkpt lat="43.96325" lon="5.07599">
        <ele>187.6</ele>
        <time>2021-11-13T09:25:39Z</time>
      </trkpt>
      <trkpt lat="43.96323" lon="5.07604">
        <ele>188.4</ele>
        <time>2021-11-13T09:25:43Z</time>
      </trkpt>
      <trkpt lat="43.96322" lon="5.07605">
        <ele>188.8</ele>
        <time>2021-11-13T09:25:44Z</time>
      </trkpt>
      <trkpt lat="43.96315" lon="5.07614">
        <ele>189.8</ele>
        <time>2021-11-13T09:25:51Z</time>
      </trkpt>
      <trkpt lat="43.96312" lon="5.07618">
        <ele>190.8</ele>
        <time>2021-11-13T09:25:55Z</time>
      </trkpt>
      <trkpt lat="43.96303" lon="5.07634">
        <ele>191.8</ele>
        <time>2021-11-13T09:26:03Z</time>
      </trkpt>
      <trkpt lat="43.963" lon="5.07641">
        <ele>193</ele>
        <time>2021-11-13T09:26:07Z</time>
      </trkpt>
      <trkpt lat="43.96294" lon="5.07652">
        <ele>194</ele>
        <time>2021-11-13T09:26:13Z</time>
      </trkpt>
      <trkpt lat="43.96293" lon="5.07653">
        <ele>194.2</ele>
        <time>2021-11-13T09:26:14Z</time>
      </trkpt>
      <trkpt lat="43.96288" lon="5.07658">
        <ele>194.6</ele>
        <time>2021-11-13T09:26:16Z</time>
      </trkpt>
      <trkpt lat="43.96286" lon="5.0766">
        <ele>194.8</ele>
        <time>2021-11-13T09:26:19Z</time>
      </trkpt>
      <trkpt lat="43.96286" lon="5.07662">
        <ele>194.8</ele>
        <time>2021-11-13T09:26:21Z</time>
      </trkpt>
      <trkpt lat="43.96284" lon="5.07664">
        <ele>195.2</ele>
        <time>2021-11-13T09:26:24Z</time>
      </trkpt>
      <trkpt lat="43.96284" lon="5.07665">
        <ele>195.2</ele>
        <time>2021-11-13T09:26:25Z</time>
      </trkpt>
      <trkpt lat="43.96282" lon="5.0767">
        <ele>195.6</ele>
        <time>2021-11-13T09:26:29Z</time>
      </trkpt>
      <trkpt lat="43.96282" lon="5.07675">
        <ele>196.4</ele>
        <time>2021-11-13T09:26:32Z</time>
      </trkpt>
      <trkpt lat="43.96278" lon="5.07686">
        <ele>197.4</ele>
        <time>2021-11-13T09:26:39Z</time>
      </trkpt>
      <trkpt lat="43.96277" lon="5.0769">
        <ele>197.6</ele>
        <time>2021-11-13T09:26:41Z</time>
      </trkpt>
      <trkpt lat="43.96274" lon="5.07696">
        <ele>197.8</ele>
        <time>2021-11-13T09:26:44Z</time>
      </trkpt>
      <trkpt lat="43.96274" lon="5.077">
        <ele>198.2</ele>
        <time>2021-11-13T09:26:46Z</time>
      </trkpt>
      <trkpt lat="43.96276" lon="5.07702">
        <ele>198.4</ele>
        <time>2021-11-13T09:26:47Z</time>
      </trkpt>
      <trkpt lat="43.96276" lon="5.07704">
        <ele>198.4</ele>
        <time>2021-11-13T09:26:48Z</time>
      </trkpt>
      <trkpt lat="43.96276" lon="5.07714">
        <ele>198.6</ele>
        <time>2021-11-13T09:26:53Z</time>
      </trkpt>
      <trkpt lat="43.96274" lon="5.07727">
        <ele>199.4</ele>
        <time>2021-11-13T09:26:59Z</time>
      </trkpt>
      <trkpt lat="43.96267" lon="5.07748">
        <ele>200.6</ele>
        <time>2021-11-13T09:27:10Z</time>
      </trkpt>
      <trkpt lat="43.96264" lon="5.07763">
        <ele>201.4</ele>
        <time>2021-11-13T09:27:15Z</time>
      </trkpt>
      <trkpt lat="43.9626" lon="5.07775">
        <ele>201.6</ele>
        <time>2021-11-13T09:27:20Z</time>
      </trkpt>
      <trkpt lat="43.9626" lon="5.07777">
        <ele>201.6</ele>
        <time>2021-11-13T09:27:21Z</time>
      </trkpt>
      <trkpt lat="43.96259" lon="5.07781">
        <ele>202</ele>
        <time>2021-11-13T09:27:23Z</time>
      </trkpt>
      <trkpt lat="43.96252" lon="5.07801">
        <ele>202.8</ele>
        <time>2021-11-13T09:27:31Z</time>
      </trkpt>
      <trkpt lat="43.96247" lon="5.07816">
        <ele>203.4</ele>
        <time>2021-11-13T09:27:39Z</time>
      </trkpt>
      <trkpt lat="43.96246" lon="5.07815">
        <ele>203.4</ele>
        <time>2021-11-13T09:27:41Z</time>
      </trkpt>
      <trkpt lat="43.96246" lon="5.07818">
        <ele>203.4</ele>
        <time>2021-11-13T09:27:45Z</time>
      </trkpt>
      <trkpt lat="43.96242" lon="5.07824">
        <ele>203.6</ele>
        <time>2021-11-13T09:27:51Z</time>
      </trkpt>
      <trkpt lat="43.96239" lon="5.07827">
        <ele>203.8</ele>
        <time>2021-11-13T09:27:53Z</time>
      </trkpt>
      <trkpt lat="43.96228" lon="5.07836">
        <ele>203.6</ele>
        <time>2021-11-13T09:28:00Z</time>
      </trkpt>
      <trkpt lat="43.96224" lon="5.07846">
        <ele>203.6</ele>
        <time>2021-11-13T09:28:08Z</time>
      </trkpt>
      <trkpt lat="43.96223" lon="5.07849">
        <ele>203.6</ele>
        <time>2021-11-13T09:28:10Z</time>
      </trkpt>
      <trkpt lat="43.96222" lon="5.07858">
        <ele>203.4</ele>
        <time>2021-11-13T09:28:14Z</time>
      </trkpt>
      <trkpt lat="43.9622" lon="5.07869">
        <ele>203</ele>
        <time>2021-11-13T09:28:19Z</time>
      </trkpt>
      <trkpt lat="43.96222" lon="5.07872">
        <ele>202.8</ele>
        <time>2021-11-13T09:28:21Z</time>
      </trkpt>
      <trkpt lat="43.9622" lon="5.07872">
        <ele>202.6</ele>
        <time>2021-11-13T09:28:25Z</time>
      </trkpt>
      <trkpt lat="43.96219" lon="5.07879">
        <ele>202.4</ele>
        <time>2021-11-13T09:28:42Z</time>
      </trkpt>
      <trkpt lat="43.96218" lon="5.07885">
        <ele>202.4</ele>
        <time>2021-11-13T09:28:45Z</time>
      </trkpt>
      <trkpt lat="43.96206" lon="5.07903">
        <ele>202</ele>
        <time>2021-11-13T09:29:00Z</time>
      </trkpt>
      <trkpt lat="43.96202" lon="5.07907">
        <ele>201.8</ele>
        <time>2021-11-13T09:29:03Z</time>
      </trkpt>
      <trkpt lat="43.96198" lon="5.07911">
        <ele>201</ele>
        <time>2021-11-13T09:29:07Z</time>
      </trkpt>
      <trkpt lat="43.96195" lon="5.07915">
        <ele>200.6</ele>
        <time>2021-11-13T09:29:10Z</time>
      </trkpt>
      <trkpt lat="43.96188" lon="5.07921">
        <ele>199.4</ele>
        <time>2021-11-13T09:29:15Z</time>
      </trkpt>
      <trkpt lat="43.96174" lon="5.07937">
        <ele>198.6</ele>
        <time>2021-11-13T09:29:26Z</time>
      </trkpt>
      <trkpt lat="43.96172" lon="5.07939">
        <ele>198</ele>
        <time>2021-11-13T09:29:28Z</time>
      </trkpt>
      <trkpt lat="43.96169" lon="5.07942">
        <ele>196.8</ele>
        <time>2021-11-13T09:29:32Z</time>
      </trkpt>
      <trkpt lat="43.96158" lon="5.07954">
        <ele>195.8</ele>
        <time>2021-11-13T09:29:41Z</time>
      </trkpt>
      <trkpt lat="43.96151" lon="5.0796">
        <ele>195.6</ele>
        <time>2021-11-13T09:29:44Z</time>
      </trkpt>
      <trkpt lat="43.96146" lon="5.07966">
        <ele>195.2</ele>
        <time>2021-11-13T09:29:48Z</time>
      </trkpt>
      <trkpt lat="43.96141" lon="5.07972">
        <ele>194.8</ele>
        <time>2021-11-13T09:29:52Z</time>
      </trkpt>
      <trkpt lat="43.96138" lon="5.07975">
        <ele>194.6</ele>
        <time>2021-11-13T09:29:54Z</time>
      </trkpt>
      <trkpt lat="43.96133" lon="5.0798">
        <ele>193.8</ele>
        <time>2021-11-13T09:29:58Z</time>
      </trkpt>
      <trkpt lat="43.9613" lon="5.07983">
        <ele>193.6</ele>
        <time>2021-11-13T09:30:00Z</time>
      </trkpt>
      <trkpt lat="43.96125" lon="5.07987">
        <ele>193</ele>
        <time>2021-11-13T09:30:03Z</time>
      </trkpt>
      <trkpt lat="43.96123" lon="5.07989">
        <ele>192.6</ele>
        <time>2021-11-13T09:30:05Z</time>
      </trkpt>
      <trkpt lat="43.96119" lon="5.07998">
        <ele>191.6</ele>
        <time>2021-11-13T09:30:11Z</time>
      </trkpt>
      <trkpt lat="43.96106" lon="5.08014">
        <ele>190.8</ele>
        <time>2021-11-13T09:30:26Z</time>
      </trkpt>
      <trkpt lat="43.96104" lon="5.08015">
        <ele>190.4</ele>
        <time>2021-11-13T09:30:28Z</time>
      </trkpt>
      <trkpt lat="43.96099" lon="5.08022">
        <ele>189.8</ele>
        <time>2021-11-13T09:30:34Z</time>
      </trkpt>
      <trkpt lat="43.96098" lon="5.08025">
        <ele>189.2</ele>
        <time>2021-11-13T09:30:36Z</time>
      </trkpt>
      <trkpt lat="43.96097" lon="5.08026">
        <ele>188.8</ele>
        <time>2021-11-13T09:30:37Z</time>
      </trkpt>
      <trkpt lat="43.96092" lon="5.08035">
        <ele>188.2</ele>
        <time>2021-11-13T09:30:41Z</time>
      </trkpt>
      <trkpt lat="43.96089" lon="5.08038">
        <ele>188</ele>
        <time>2021-11-13T09:30:43Z</time>
      </trkpt>
      <trkpt lat="43.96078" lon="5.08042">
        <ele>187</ele>
        <time>2021-11-13T09:30:50Z</time>
      </trkpt>
      <trkpt lat="43.96075" lon="5.08045">
        <ele>186.2</ele>
        <time>2021-11-13T09:30:53Z</time>
      </trkpt>
      <trkpt lat="43.96074" lon="5.08046">
        <ele>185.8</ele>
        <time>2021-11-13T09:30:54Z</time>
      </trkpt>
      <trkpt lat="43.96073" lon="5.08052">
        <ele>185.2</ele>
        <time>2021-11-13T09:30:58Z</time>
      </trkpt>
      <trkpt lat="43.96071" lon="5.08059">
        <ele>185</ele>
        <time>2021-11-13T09:31:02Z</time>
      </trkpt>
      <trkpt lat="43.9607" lon="5.08063">
        <ele>184.8</ele>
        <time>2021-11-13T09:31:04Z</time>
      </trkpt>
      <trkpt lat="43.96067" lon="5.08073">
        <ele>184</ele>
        <time>2021-11-13T09:31:10Z</time>
      </trkpt>
      <trkpt lat="43.96067" lon="5.08074">
        <ele>183.8</ele>
        <time>2021-11-13T09:31:11Z</time>
      </trkpt>
      <trkpt lat="43.96065" lon="5.08076">
        <ele>183.4</ele>
        <time>2021-11-13T09:31:13Z</time>
      </trkpt>
      <trkpt lat="43.96062" lon="5.08086">
        <ele>182.8</ele>
        <time>2021-11-13T09:31:19Z</time>
      </trkpt>
      <trkpt lat="43.96063" lon="5.08088">
        <ele>182.6</ele>
        <time>2021-11-13T09:31:20Z</time>
      </trkpt>
      <trkpt lat="43.96062" lon="5.08096">
        <ele>182.4</ele>
        <time>2021-11-13T09:31:25Z</time>
      </trkpt>
      <trkpt lat="43.96061" lon="5.08098">
        <ele>182.4</ele>
        <time>2021-11-13T09:31:27Z</time>
      </trkpt>
      <trkpt lat="43.96061" lon="5.08103">
        <ele>182.2</ele>
        <time>2021-11-13T09:31:30Z</time>
      </trkpt>
      <trkpt lat="43.96061" lon="5.08113">
        <ele>182.2</ele>
        <time>2021-11-13T09:31:35Z</time>
      </trkpt>
      <trkpt lat="43.96061" lon="5.08117">
        <ele>182</ele>
        <time>2021-11-13T09:31:37Z</time>
      </trkpt>
      <trkpt lat="43.9606" lon="5.08121">
        <ele>182</ele>
        <time>2021-11-13T09:31:39Z</time>
      </trkpt>
      <trkpt lat="43.96059" lon="5.08123">
        <ele>182</ele>
        <time>2021-11-13T09:31:41Z</time>
      </trkpt>
      <trkpt lat="43.9606" lon="5.0813">
        <ele>182</ele>
        <time>2021-11-13T09:31:46Z</time>
      </trkpt>
      <trkpt lat="43.96058" lon="5.08134">
        <ele>182.6</ele>
        <time>2021-11-13T09:31:49Z</time>
      </trkpt>
      <trkpt lat="43.96051" lon="5.08136">
        <ele>182.4</ele>
        <time>2021-11-13T09:31:54Z</time>
      </trkpt>
      <trkpt lat="43.96046" lon="5.08134">
        <ele>182</ele>
        <time>2021-11-13T09:31:58Z</time>
      </trkpt>
      <trkpt lat="43.96041" lon="5.08133">
        <ele>182</ele>
        <time>2021-11-13T09:32:01Z</time>
      </trkpt>
      <trkpt lat="43.96026" lon="5.08134">
        <ele>181.6</ele>
        <time>2021-11-13T09:32:10Z</time>
      </trkpt>
      <trkpt lat="43.96018" lon="5.08136">
        <ele>181.2</ele>
        <time>2021-11-13T09:32:13Z</time>
      </trkpt>
      <trkpt lat="43.96014" lon="5.08138">
        <ele>180.6</ele>
        <time>2021-11-13T09:32:16Z</time>
      </trkpt>
      <trkpt lat="43.96011" lon="5.08138">
        <ele>180.4</ele>
        <time>2021-11-13T09:32:19Z</time>
      </trkpt>
      <trkpt lat="43.96004" lon="5.08137">
        <ele>179.8</ele>
        <time>2021-11-13T09:32:24Z</time>
      </trkpt>
      <trkpt lat="43.95992" lon="5.08138">
        <ele>179.4</ele>
        <time>2021-11-13T09:32:34Z</time>
      </trkpt>
      <trkpt lat="43.9598" lon="5.08139">
        <ele>178.4</ele>
        <time>2021-11-13T09:32:44Z</time>
      </trkpt>
      <trkpt lat="43.95968" lon="5.08143">
        <ele>178.4</ele>
        <time>2021-11-13T09:32:50Z</time>
      </trkpt>
      <trkpt lat="43.95955" lon="5.08144">
        <ele>177.2</ele>
        <time>2021-11-13T09:32:56Z</time>
      </trkpt>
      <trkpt lat="43.95936" lon="5.08149">
        <ele>176.6</ele>
        <time>2021-11-13T09:33:11Z</time>
      </trkpt>
      <trkpt lat="43.9592" lon="5.08153">
        <ele>176.2</ele>
        <time>2021-11-13T09:33:22Z</time>
      </trkpt>
      <trkpt lat="43.95916" lon="5.08155">
        <ele>176</ele>
        <time>2021-11-13T09:33:24Z</time>
      </trkpt>
      <trkpt lat="43.95908" lon="5.08158">
        <ele>175</ele>
        <time>2021-11-13T09:33:28Z</time>
      </trkpt>
      <trkpt lat="43.95889" lon="5.08165">
        <ele>174.6</ele>
        <time>2021-11-13T09:33:39Z</time>
      </trkpt>
      <trkpt lat="43.95881" lon="5.08167">
        <ele>174.6</ele>
        <time>2021-11-13T09:33:43Z</time>
      </trkpt>
      <trkpt lat="43.95869" lon="5.08171">
        <ele>174.4</ele>
        <time>2021-11-13T09:33:51Z</time>
      </trkpt>
      <trkpt lat="43.95866" lon="5.08172">
        <ele>174</ele>
        <time>2021-11-13T09:33:53Z</time>
      </trkpt>
      <trkpt lat="43.95848" lon="5.08177">
        <ele>173.2</ele>
        <time>2021-11-13T09:34:04Z</time>
      </trkpt>
      <trkpt lat="43.95837" lon="5.08177">
        <ele>173</ele>
        <time>2021-11-13T09:34:11Z</time>
      </trkpt>
      <trkpt lat="43.95821" lon="5.08187">
        <ele>171.8</ele>
        <time>2021-11-13T09:34:24Z</time>
      </trkpt>
      <trkpt lat="43.95804" lon="5.08195">
        <ele>172</ele>
        <time>2021-11-13T09:34:35Z</time>
      </trkpt>
      <trkpt lat="43.95787" lon="5.08202">
        <ele>170.8</ele>
        <time>2021-11-13T09:34:47Z</time>
      </trkpt>
      <trkpt lat="43.95781" lon="5.08204">
        <ele>170.6</ele>
        <time>2021-11-13T09:34:50Z</time>
      </trkpt>
      <trkpt lat="43.95764" lon="5.08212">
        <ele>170.6</ele>
        <time>2021-11-13T09:35:03Z</time>
      </trkpt>
      <trkpt lat="43.95749" lon="5.08219">
        <ele>169.8</ele>
        <time>2021-11-13T09:35:14Z</time>
      </trkpt>
      <trkpt lat="43.95731" lon="5.08222">
        <ele>169.6</ele>
        <time>2021-11-13T09:35:25Z</time>
      </trkpt>
      <trkpt lat="43.9572" lon="5.08221">
        <ele>168.8</ele>
        <time>2021-11-13T09:35:31Z</time>
      </trkpt>
      <trkpt lat="43.95716" lon="5.08219">
        <ele>168.6</ele>
        <time>2021-11-13T09:35:34Z</time>
      </trkpt>
      <trkpt lat="43.9571" lon="5.08214">
        <ele>168.2</ele>
        <time>2021-11-13T09:35:37Z</time>
      </trkpt>
      <trkpt lat="43.95707" lon="5.08212">
        <ele>168</ele>
        <time>2021-11-13T09:35:39Z</time>
      </trkpt>
      <trkpt lat="43.95688" lon="5.08213">
        <ele>168</ele>
        <time>2021-11-13T09:35:51Z</time>
      </trkpt>
      <trkpt lat="43.95669" lon="5.08211">
        <ele>168</ele>
        <time>2021-11-13T09:36:04Z</time>
      </trkpt>
      <trkpt lat="43.95668" lon="5.08212">
        <ele>168.4</ele>
        <time>2021-11-13T09:36:06Z</time>
      </trkpt>
      <trkpt lat="43.95667" lon="5.08215">
        <ele>168.4</ele>
        <time>2021-11-13T09:36:08Z</time>
      </trkpt>
      <trkpt lat="43.95649" lon="5.08223">
        <ele>169.4</ele>
        <time>2021-11-13T09:36:21Z</time>
      </trkpt>
      <trkpt lat="43.95646" lon="5.08224">
        <ele>169.6</ele>
        <time>2021-11-13T09:36:23Z</time>
      </trkpt>
      <trkpt lat="43.9564" lon="5.08227">
        <ele>170.4</ele>
        <time>2021-11-13T09:36:29Z</time>
      </trkpt>
      <trkpt lat="43.95636" lon="5.08229">
        <ele>170.8</ele>
        <time>2021-11-13T09:36:31Z</time>
      </trkpt>
      <trkpt lat="43.95635" lon="5.08229">
        <ele>171</ele>
        <time>2021-11-13T09:36:32Z</time>
      </trkpt>
      <trkpt lat="43.95633" lon="5.0823">
        <ele>171.8</ele>
        <time>2021-11-13T09:36:34Z</time>
      </trkpt>
      <trkpt lat="43.95632" lon="5.0823">
        <ele>172</ele>
        <time>2021-11-13T09:36:35Z</time>
      </trkpt>
      <trkpt lat="43.95629" lon="5.08231">
        <ele>172.6</ele>
        <time>2021-11-13T09:36:38Z</time>
      </trkpt>
      <trkpt lat="43.95627" lon="5.08232">
        <ele>173</ele>
        <time>2021-11-13T09:36:40Z</time>
      </trkpt>
      <trkpt lat="43.95626" lon="5.08232">
        <ele>173.4</ele>
        <time>2021-11-13T09:36:41Z</time>
      </trkpt>
      <trkpt lat="43.95623" lon="5.08234">
        <ele>174</ele>
        <time>2021-11-13T09:36:43Z</time>
      </trkpt>
      <trkpt lat="43.95619" lon="5.08235">
        <ele>174.8</ele>
        <time>2021-11-13T09:36:45Z</time>
      </trkpt>
      <trkpt lat="43.95615" lon="5.08235">
        <ele>175.8</ele>
        <time>2021-11-13T09:36:48Z</time>
      </trkpt>
      <trkpt lat="43.95612" lon="5.08236">
        <ele>176.4</ele>
        <time>2021-11-13T09:36:51Z</time>
      </trkpt>
      <trkpt lat="43.95608" lon="5.08238">
        <ele>177.2</ele>
        <time>2021-11-13T09:36:53Z</time>
      </trkpt>
      <trkpt lat="43.95602" lon="5.08243">
        <ele>178.4</ele>
        <time>2021-11-13T09:36:56Z</time>
      </trkpt>
      <trkpt lat="43.956" lon="5.08243">
        <ele>179.8</ele>
        <time>2021-11-13T09:36:59Z</time>
      </trkpt>
      <trkpt lat="43.95599" lon="5.08244">
        <ele>180.2</ele>
        <time>2021-11-13T09:37:00Z</time>
      </trkpt>
      <trkpt lat="43.95598" lon="5.08243">
        <ele>181</ele>
        <time>2021-11-13T09:37:04Z</time>
      </trkpt>
      <trkpt lat="43.95587" lon="5.08243">
        <ele>181.4</ele>
        <time>2021-11-13T09:37:37Z</time>
      </trkpt>
      <trkpt lat="43.95583" lon="5.08245">
        <ele>182.2</ele>
        <time>2021-11-13T09:37:40Z</time>
      </trkpt>
      <trkpt lat="43.95577" lon="5.08248">
        <ele>183.2</ele>
        <time>2021-11-13T09:37:44Z</time>
      </trkpt>
      <trkpt lat="43.95571" lon="5.08249">
        <ele>183.2</ele>
        <time>2021-11-13T09:37:49Z</time>
      </trkpt>
      <trkpt lat="43.95569" lon="5.08248">
        <ele>183.4</ele>
        <time>2021-11-13T09:37:51Z</time>
      </trkpt>
      <trkpt lat="43.95566" lon="5.08247">
        <ele>183.8</ele>
        <time>2021-11-13T09:37:54Z</time>
      </trkpt>
      <trkpt lat="43.95558" lon="5.08245">
        <ele>184</ele>
        <time>2021-11-13T09:37:58Z</time>
      </trkpt>
      <trkpt lat="43.95552" lon="5.08241">
        <ele>184.4</ele>
        <time>2021-11-13T09:38:01Z</time>
      </trkpt>
      <trkpt lat="43.95543" lon="5.08235">
        <ele>184.8</ele>
        <time>2021-11-13T09:38:08Z</time>
      </trkpt>
      <trkpt lat="43.95533" lon="5.08226">
        <ele>185</ele>
        <time>2021-11-13T09:38:15Z</time>
      </trkpt>
      <trkpt lat="43.95524" lon="5.08221">
        <ele>185.4</ele>
        <time>2021-11-13T09:38:20Z</time>
      </trkpt>
      <trkpt lat="43.95523" lon="5.08219">
        <ele>185.8</ele>
        <time>2021-11-13T09:38:21Z</time>
      </trkpt>
      <trkpt lat="43.95518" lon="5.0821">
        <ele>186.4</ele>
        <time>2021-11-13T09:38:28Z</time>
      </trkpt>
      <trkpt lat="43.95515" lon="5.0821">
        <ele>186.6</ele>
        <time>2021-11-13T09:38:31Z</time>
      </trkpt>
      <trkpt lat="43.95509" lon="5.08211">
        <ele>187.6</ele>
        <time>2021-11-13T09:38:36Z</time>
      </trkpt>
      <trkpt lat="43.955" lon="5.0821">
        <ele>188.6</ele>
        <time>2021-11-13T09:38:44Z</time>
      </trkpt>
      <trkpt lat="43.9549" lon="5.08206">
        <ele>189.6</ele>
        <time>2021-11-13T09:38:49Z</time>
      </trkpt>
      <trkpt lat="43.95488" lon="5.08206">
        <ele>189.8</ele>
        <time>2021-11-13T09:38:50Z</time>
      </trkpt>
      <trkpt lat="43.95472" lon="5.08212">
        <ele>191</ele>
        <time>2021-11-13T09:39:00Z</time>
      </trkpt>
      <trkpt lat="43.95466" lon="5.08214">
        <ele>192</ele>
        <time>2021-11-13T09:39:06Z</time>
      </trkpt>
      <trkpt lat="43.95454" lon="5.08219">
        <ele>193.2</ele>
        <time>2021-11-13T09:39:16Z</time>
      </trkpt>
      <trkpt lat="43.95454" lon="5.0822">
        <ele>193.2</ele>
        <time>2021-11-13T09:39:17Z</time>
      </trkpt>
      <trkpt lat="43.95454" lon="5.08221">
        <ele>193.4</ele>
        <time>2021-11-13T09:39:19Z</time>
      </trkpt>
      <trkpt lat="43.95451" lon="5.08224">
        <ele>193.4</ele>
        <time>2021-11-13T09:39:23Z</time>
      </trkpt>
      <trkpt lat="43.95446" lon="5.08231">
        <ele>193.8</ele>
        <time>2021-11-13T09:39:28Z</time>
      </trkpt>
      <trkpt lat="43.95444" lon="5.08237">
        <ele>194</ele>
        <time>2021-11-13T09:39:32Z</time>
      </trkpt>
      <trkpt lat="43.95444" lon="5.08238">
        <ele>194.2</ele>
        <time>2021-11-13T09:39:33Z</time>
      </trkpt>
      <trkpt lat="43.95442" lon="5.08241">
        <ele>194.4</ele>
        <time>2021-11-13T09:39:35Z</time>
      </trkpt>
      <trkpt lat="43.95436" lon="5.08254">
        <ele>194.6</ele>
        <time>2021-11-13T09:39:51Z</time>
      </trkpt>
      <trkpt lat="43.95433" lon="5.08258">
        <ele>195.2</ele>
        <time>2021-11-13T09:39:55Z</time>
      </trkpt>
      <trkpt lat="43.95417" lon="5.0827">
        <ele>194.8</ele>
        <time>2021-11-13T09:40:07Z</time>
      </trkpt>
      <trkpt lat="43.95413" lon="5.08273">
        <ele>195</ele>
        <time>2021-11-13T09:40:10Z</time>
      </trkpt>
      <trkpt lat="43.95409" lon="5.08276">
        <ele>194.2</ele>
        <time>2021-11-13T09:40:14Z</time>
      </trkpt>
      <trkpt lat="43.95404" lon="5.0828">
        <ele>193.4</ele>
        <time>2021-11-13T09:40:18Z</time>
      </trkpt>
      <trkpt lat="43.95395" lon="5.08289">
        <ele>193</ele>
        <time>2021-11-13T09:40:27Z</time>
      </trkpt>
      <trkpt lat="43.95387" lon="5.08295">
        <ele>192.8</ele>
        <time>2021-11-13T09:40:33Z</time>
      </trkpt>
      <trkpt lat="43.9538" lon="5.08294">
        <ele>193</ele>
        <time>2021-11-13T09:40:37Z</time>
      </trkpt>
      <trkpt lat="43.95379" lon="5.083">
        <ele>192.8</ele>
        <time>2021-11-13T09:40:41Z</time>
      </trkpt>
      <trkpt lat="43.95363" lon="5.08302">
        <ele>192</ele>
        <time>2021-11-13T09:40:48Z</time>
      </trkpt>
      <trkpt lat="43.95358" lon="5.08301">
        <ele>193.2</ele>
        <time>2021-11-13T09:40:52Z</time>
      </trkpt>
      <trkpt lat="43.95352" lon="5.08299">
        <ele>194</ele>
        <time>2021-11-13T09:40:55Z</time>
      </trkpt>
      <trkpt lat="43.95348" lon="5.08301">
        <ele>194.6</ele>
        <time>2021-11-13T09:40:56Z</time>
      </trkpt>
      <trkpt lat="43.95346" lon="5.08301">
        <ele>195.2</ele>
        <time>2021-11-13T09:40:58Z</time>
      </trkpt>
      <trkpt lat="43.95341" lon="5.08302">
        <ele>195.6</ele>
        <time>2021-11-13T09:41:00Z</time>
      </trkpt>
      <trkpt lat="43.95338" lon="5.08303">
        <ele>195.8</ele>
        <time>2021-11-13T09:41:01Z</time>
      </trkpt>
      <trkpt lat="43.95333" lon="5.08302">
        <ele>196.6</ele>
        <time>2021-11-13T09:41:05Z</time>
      </trkpt>
      <trkpt lat="43.95332" lon="5.08302">
        <ele>196.8</ele>
        <time>2021-11-13T09:41:06Z</time>
      </trkpt>
      <trkpt lat="43.95325" lon="5.08299">
        <ele>197.8</ele>
        <time>2021-11-13T09:41:10Z</time>
      </trkpt>
      <trkpt lat="43.95321" lon="5.08296">
        <ele>198.2</ele>
        <time>2021-11-13T09:41:15Z</time>
      </trkpt>
      <trkpt lat="43.9532" lon="5.08293">
        <ele>198.4</ele>
        <time>2021-11-13T09:41:18Z</time>
      </trkpt>
      <trkpt lat="43.95316" lon="5.08291">
        <ele>198.8</ele>
        <time>2021-11-13T09:41:21Z</time>
      </trkpt>
      <trkpt lat="43.95314" lon="5.08291">
        <ele>198.8</ele>
        <time>2021-11-13T09:41:22Z</time>
      </trkpt>
      <trkpt lat="43.95312" lon="5.0829">
        <ele>199</ele>
        <time>2021-11-13T09:41:23Z</time>
      </trkpt>
      <trkpt lat="43.95301" lon="5.08286">
        <ele>199.6</ele>
        <time>2021-11-13T09:41:32Z</time>
      </trkpt>
      <trkpt lat="43.95299" lon="5.08286">
        <ele>200</ele>
        <time>2021-11-13T09:41:35Z</time>
      </trkpt>
      <trkpt lat="43.95298" lon="5.08283">
        <ele>200.8</ele>
        <time>2021-11-13T09:41:38Z</time>
      </trkpt>
      <trkpt lat="43.95294" lon="5.08284">
        <ele>201.2</ele>
        <time>2021-11-13T09:41:40Z</time>
      </trkpt>
      <trkpt lat="43.95288" lon="5.08282">
        <ele>202</ele>
        <time>2021-11-13T09:41:45Z</time>
      </trkpt>
      <trkpt lat="43.95279" lon="5.08278">
        <ele>202.2</ele>
        <time>2021-11-13T09:41:50Z</time>
      </trkpt>
      <trkpt lat="43.95261" lon="5.08271">
        <ele>202.6</ele>
        <time>2021-11-13T09:41:59Z</time>
      </trkpt>
      <trkpt lat="43.95244" lon="5.08262">
        <ele>203</ele>
        <time>2021-11-13T09:42:12Z</time>
      </trkpt>
      <trkpt lat="43.9524" lon="5.08264">
        <ele>203.2</ele>
        <time>2021-11-13T09:42:15Z</time>
      </trkpt>
      <trkpt lat="43.95239" lon="5.08265">
        <ele>203.2</ele>
        <time>2021-11-13T09:42:16Z</time>
      </trkpt>
      <trkpt lat="43.95238" lon="5.08265">
        <ele>203.4</ele>
        <time>2021-11-13T09:42:17Z</time>
      </trkpt>
      <trkpt lat="43.95237" lon="5.08265">
        <ele>203.6</ele>
        <time>2021-11-13T09:42:19Z</time>
      </trkpt>
      <trkpt lat="43.95237" lon="5.08268">
        <ele>204.2</ele>
        <time>2021-11-13T09:42:21Z</time>
      </trkpt>
      <trkpt lat="43.95237" lon="5.08272">
        <ele>204.8</ele>
        <time>2021-11-13T09:42:23Z</time>
      </trkpt>
      <trkpt lat="43.95237" lon="5.08276">
        <ele>205.4</ele>
        <time>2021-11-13T09:42:26Z</time>
      </trkpt>
      <trkpt lat="43.95236" lon="5.0828">
        <ele>206.4</ele>
        <time>2021-11-13T09:42:29Z</time>
      </trkpt>
      <trkpt lat="43.95235" lon="5.08284">
        <ele>207.4</ele>
        <time>2021-11-13T09:42:32Z</time>
      </trkpt>
      <trkpt lat="43.95235" lon="5.08285">
        <ele>207.8</ele>
        <time>2021-11-13T09:42:33Z</time>
      </trkpt>
      <trkpt lat="43.95234" lon="5.08287">
        <ele>208.4</ele>
        <time>2021-11-13T09:42:35Z</time>
      </trkpt>
      <trkpt lat="43.95232" lon="5.08289">
        <ele>208.6</ele>
        <time>2021-11-13T09:42:37Z</time>
      </trkpt>
      <trkpt lat="43.95231" lon="5.0829">
        <ele>208.6</ele>
        <time>2021-11-13T09:42:38Z</time>
      </trkpt>
      <trkpt lat="43.95229" lon="5.08294">
        <ele>209.8</ele>
        <time>2021-11-13T09:42:42Z</time>
      </trkpt>
      <trkpt lat="43.95228" lon="5.08295">
        <ele>210.6</ele>
        <time>2021-11-13T09:42:44Z</time>
      </trkpt>
      <trkpt lat="43.95226" lon="5.08296">
        <ele>211</ele>
        <time>2021-11-13T09:42:46Z</time>
      </trkpt>
      <trkpt lat="43.95223" lon="5.08299">
        <ele>211.2</ele>
        <time>2021-11-13T09:42:48Z</time>
      </trkpt>
      <trkpt lat="43.95214" lon="5.08306">
        <ele>211.6</ele>
        <time>2021-11-13T09:42:52Z</time>
      </trkpt>
      <trkpt lat="43.95213" lon="5.08307">
        <ele>211.8</ele>
        <time>2021-11-13T09:42:53Z</time>
      </trkpt>
      <trkpt lat="43.95212" lon="5.08308">
        <ele>212</ele>
        <time>2021-11-13T09:42:54Z</time>
      </trkpt>
      <trkpt lat="43.95208" lon="5.08309">
        <ele>212.8</ele>
        <time>2021-11-13T09:42:57Z</time>
      </trkpt>
      <trkpt lat="43.95207" lon="5.08309">
        <ele>213</ele>
        <time>2021-11-13T09:42:58Z</time>
      </trkpt>
      <trkpt lat="43.95204" lon="5.0831">
        <ele>213.2</ele>
        <time>2021-11-13T09:43:00Z</time>
      </trkpt>
      <trkpt lat="43.95194" lon="5.08312">
        <ele>214</ele>
        <time>2021-11-13T09:43:06Z</time>
      </trkpt>
      <trkpt lat="43.95186" lon="5.08312">
        <ele>214.6</ele>
        <time>2021-11-13T09:43:10Z</time>
      </trkpt>
      <trkpt lat="43.95184" lon="5.08312">
        <ele>215</ele>
        <time>2021-11-13T09:43:12Z</time>
      </trkpt>
      <trkpt lat="43.95184" lon="5.08312">
        <ele>215.2</ele>
        <time>2021-11-13T09:43:13Z</time>
      </trkpt>
      <trkpt lat="43.95182" lon="5.08312">
        <ele>215.4</ele>
        <time>2021-11-13T09:43:15Z</time>
      </trkpt>
      <trkpt lat="43.95179" lon="5.08313">
        <ele>215.8</ele>
        <time>2021-11-13T09:43:17Z</time>
      </trkpt>
      <trkpt lat="43.95176" lon="5.08313">
        <ele>216.2</ele>
        <time>2021-11-13T09:43:19Z</time>
      </trkpt>
      <trkpt lat="43.95173" lon="5.08313">
        <ele>217.4</ele>
        <time>2021-11-13T09:43:22Z</time>
      </trkpt>
      <trkpt lat="43.95168" lon="5.0831">
        <ele>218.2</ele>
        <time>2021-11-13T09:43:26Z</time>
      </trkpt>
      <trkpt lat="43.95166" lon="5.08309">
        <ele>218.4</ele>
        <time>2021-11-13T09:43:27Z</time>
      </trkpt>
      <trkpt lat="43.95161" lon="5.08307">
        <ele>219.8</ele>
        <time>2021-11-13T09:43:31Z</time>
      </trkpt>
      <trkpt lat="43.95154" lon="5.08306">
        <ele>220.8</ele>
        <time>2021-11-13T09:43:35Z</time>
      </trkpt>
      <trkpt lat="43.95142" lon="5.08301">
        <ele>221.2</ele>
        <time>2021-11-13T09:43:45Z</time>
      </trkpt>
      <trkpt lat="43.95123" lon="5.08302">
        <ele>220.4</ele>
        <time>2021-11-13T09:43:59Z</time>
      </trkpt>
      <trkpt lat="43.95117" lon="5.08302">
        <ele>219.8</ele>
        <time>2021-11-13T09:44:03Z</time>
      </trkpt>
      <trkpt lat="43.95114" lon="5.08302">
        <ele>219.6</ele>
        <time>2021-11-13T09:44:05Z</time>
      </trkpt>
      <trkpt lat="43.95112" lon="5.08301">
        <ele>219.6</ele>
        <time>2021-11-13T09:44:07Z</time>
      </trkpt>
      <trkpt lat="43.95103" lon="5.08297">
        <ele>218.8</ele>
        <time>2021-11-13T09:44:13Z</time>
      </trkpt>
      <trkpt lat="43.95101" lon="5.08296">
        <ele>218.8</ele>
        <time>2021-11-13T09:44:15Z</time>
      </trkpt>
      <trkpt lat="43.9509" lon="5.08292">
        <ele>218</ele>
        <time>2021-11-13T09:44:21Z</time>
      </trkpt>
      <trkpt lat="43.95088" lon="5.08292">
        <ele>217.6</ele>
        <time>2021-11-13T09:44:22Z</time>
      </trkpt>
      <trkpt lat="43.95076" lon="5.08291">
        <ele>217</ele>
        <time>2021-11-13T09:44:28Z</time>
      </trkpt>
      <trkpt lat="43.95071" lon="5.08286">
        <ele>217</ele>
        <time>2021-11-13T09:44:31Z</time>
      </trkpt>
      <trkpt lat="43.95052" lon="5.08275">
        <ele>217.6</ele>
        <time>2021-11-13T09:44:41Z</time>
      </trkpt>
      <trkpt lat="43.95036" lon="5.08268">
        <ele>216.6</ele>
        <time>2021-11-13T09:44:51Z</time>
      </trkpt>
      <trkpt lat="43.95033" lon="5.08268">
        <ele>216.6</ele>
        <time>2021-11-13T09:44:53Z</time>
      </trkpt>
      <trkpt lat="43.95027" lon="5.08265">
        <ele>215.8</ele>
        <time>2021-11-13T09:44:57Z</time>
      </trkpt>
      <trkpt lat="43.95024" lon="5.08261">
        <ele>215.6</ele>
        <time>2021-11-13T09:44:59Z</time>
      </trkpt>
      <trkpt lat="43.9501" lon="5.08243">
        <ele>214.4</ele>
        <time>2021-11-13T09:45:11Z</time>
      </trkpt>
      <trkpt lat="43.95007" lon="5.08238">
        <ele>213.4</ele>
        <time>2021-11-13T09:45:14Z</time>
      </trkpt>
      <trkpt lat="43.95005" lon="5.08237">
        <ele>213</ele>
        <time>2021-11-13T09:45:15Z</time>
      </trkpt>
      <trkpt lat="43.94999" lon="5.08235">
        <ele>211.8</ele>
        <time>2021-11-13T09:45:20Z</time>
      </trkpt>
      <trkpt lat="43.94994" lon="5.08237">
        <ele>210.8</ele>
        <time>2021-11-13T09:45:24Z</time>
      </trkpt>
      <trkpt lat="43.94993" lon="5.08239">
        <ele>210.6</ele>
        <time>2021-11-13T09:45:25Z</time>
      </trkpt>
      <trkpt lat="43.94979" lon="5.08255">
        <ele>210.2</ele>
        <time>2021-11-13T09:45:35Z</time>
      </trkpt>
      <trkpt lat="43.94966" lon="5.08273">
        <ele>210</ele>
        <time>2021-11-13T09:45:49Z</time>
      </trkpt>
      <trkpt lat="43.94964" lon="5.08275">
        <ele>210.2</ele>
        <time>2021-11-13T09:45:51Z</time>
      </trkpt>
      <trkpt lat="43.94957" lon="5.08283">
        <ele>210.2</ele>
        <time>2021-11-13T09:46:00Z</time>
      </trkpt>
      <trkpt lat="43.94954" lon="5.08284">
        <ele>210.4</ele>
        <time>2021-11-13T09:46:02Z</time>
      </trkpt>
      <trkpt lat="43.94936" lon="5.08277">
        <ele>209.8</ele>
        <time>2021-11-13T09:46:14Z</time>
      </trkpt>
      <trkpt lat="43.94932" lon="5.08275">
        <ele>209.6</ele>
        <time>2021-11-13T09:46:16Z</time>
      </trkpt>
      <trkpt lat="43.94923" lon="5.0827">
        <ele>208.6</ele>
        <time>2021-11-13T09:46:20Z</time>
      </trkpt>
      <trkpt lat="43.94906" lon="5.08258">
        <ele>208.2</ele>
        <time>2021-11-13T09:46:30Z</time>
      </trkpt>
      <trkpt lat="43.949" lon="5.08254">
        <ele>207.4</ele>
        <time>2021-11-13T09:46:35Z</time>
      </trkpt>
      <trkpt lat="43.94891" lon="5.08248">
        <ele>206.2</ele>
        <time>2021-11-13T09:46:40Z</time>
      </trkpt>
      <trkpt lat="43.94876" lon="5.08235">
        <ele>205.2</ele>
        <time>2021-11-13T09:46:51Z</time>
      </trkpt>
      <trkpt lat="43.94861" lon="5.08227">
        <ele>204.2</ele>
        <time>2021-11-13T09:47:01Z</time>
      </trkpt>
      <trkpt lat="43.94843" lon="5.08222">
        <ele>203.4</ele>
        <time>2021-11-13T09:47:13Z</time>
      </trkpt>
      <trkpt lat="43.94842" lon="5.08221">
        <ele>203.2</ele>
        <time>2021-11-13T09:47:14Z</time>
      </trkpt>
      <trkpt lat="43.94841" lon="5.08221">
        <ele>202.8</ele>
        <time>2021-11-13T09:47:15Z</time>
      </trkpt>
      <trkpt lat="43.94836" lon="5.08221">
        <ele>202.2</ele>
        <time>2021-11-13T09:47:18Z</time>
      </trkpt>
      <trkpt lat="43.94834" lon="5.08222">
        <ele>202</ele>
        <time>2021-11-13T09:47:20Z</time>
      </trkpt>
      <trkpt lat="43.94833" lon="5.08222">
        <ele>202</ele>
        <time>2021-11-13T09:47:22Z</time>
      </trkpt>
      <trkpt lat="43.94826" lon="5.0822">
        <ele>202.8</ele>
        <time>2021-11-13T09:47:27Z</time>
      </trkpt>
      <trkpt lat="43.94825" lon="5.08212">
        <ele>202</ele>
        <time>2021-11-13T09:47:36Z</time>
      </trkpt>
      <trkpt lat="43.94826" lon="5.08207">
        <ele>201</ele>
        <time>2021-11-13T09:47:39Z</time>
      </trkpt>
      <trkpt lat="43.94827" lon="5.08206">
        <ele>201</ele>
        <time>2021-11-13T09:47:40Z</time>
      </trkpt>
      <trkpt lat="43.94829" lon="5.08201">
        <ele>200.4</ele>
        <time>2021-11-13T09:47:43Z</time>
      </trkpt>
      <trkpt lat="43.94829" lon="5.08199">
        <ele>200</ele>
        <time>2021-11-13T09:47:44Z</time>
      </trkpt>
      <trkpt lat="43.94829" lon="5.08199">
        <ele>199.6</ele>
        <time>2021-11-13T09:47:46Z</time>
      </trkpt>
      <trkpt lat="43.94828" lon="5.08195">
        <ele>199.4</ele>
        <time>2021-11-13T09:47:49Z</time>
      </trkpt>
      <trkpt lat="43.94828" lon="5.08191">
        <ele>199.4</ele>
        <time>2021-11-13T09:47:51Z</time>
      </trkpt>
      <trkpt lat="43.94827" lon="5.08186">
        <ele>198.8</ele>
        <time>2021-11-13T09:47:54Z</time>
      </trkpt>
      <trkpt lat="43.94827" lon="5.08178">
        <ele>197.6</ele>
        <time>2021-11-13T09:47:58Z</time>
      </trkpt>
      <trkpt lat="43.94828" lon="5.08172">
        <ele>196.8</ele>
        <time>2021-11-13T09:48:01Z</time>
      </trkpt>
      <trkpt lat="43.94828" lon="5.0817">
        <ele>196.6</ele>
        <time>2021-11-13T09:48:02Z</time>
      </trkpt>
      <trkpt lat="43.94829" lon="5.08168">
        <ele>196.4</ele>
        <time>2021-11-13T09:48:03Z</time>
      </trkpt>
      <trkpt lat="43.94831" lon="5.08164">
        <ele>195.8</ele>
        <time>2021-11-13T09:48:06Z</time>
      </trkpt>
      <trkpt lat="43.9483" lon="5.0816">
        <ele>195.4</ele>
        <time>2021-11-13T09:48:08Z</time>
      </trkpt>
      <trkpt lat="43.94829" lon="5.08155">
        <ele>195</ele>
        <time>2021-11-13T09:48:10Z</time>
      </trkpt>
      <trkpt lat="43.94827" lon="5.08146">
        <ele>194.2</ele>
        <time>2021-11-13T09:48:13Z</time>
      </trkpt>
      <trkpt lat="43.94824" lon="5.0813">
        <ele>193.2</ele>
        <time>2021-11-13T09:48:19Z</time>
      </trkpt>
      <trkpt lat="43.94823" lon="5.08125">
        <ele>193.2</ele>
        <time>2021-11-13T09:48:21Z</time>
      </trkpt>
      <trkpt lat="43.94818" lon="5.08103">
        <ele>192.2</ele>
        <time>2021-11-13T09:48:31Z</time>
      </trkpt>
      <trkpt lat="43.94817" lon="5.08101">
        <ele>191.8</ele>
        <time>2021-11-13T09:48:33Z</time>
      </trkpt>
      <trkpt lat="43.94813" lon="5.08095">
        <ele>191.2</ele>
        <time>2021-11-13T09:48:37Z</time>
      </trkpt>
      <trkpt lat="43.94813" lon="5.08095">
        <ele>190.8</ele>
        <time>2021-11-13T09:48:38Z</time>
      </trkpt>
      <trkpt lat="43.94813" lon="5.08095">
        <ele>190.6</ele>
        <time>2021-11-13T09:48:39Z</time>
      </trkpt>
      <trkpt lat="43.94812" lon="5.08095">
        <ele>189.8</ele>
        <time>2021-11-13T09:48:43Z</time>
      </trkpt>
      <trkpt lat="43.94807" lon="5.08098">
        <ele>189.8</ele>
        <time>2021-11-13T09:48:47Z</time>
      </trkpt>
      <trkpt lat="43.94804" lon="5.081">
        <ele>190.8</ele>
        <time>2021-11-13T09:48:51Z</time>
      </trkpt>
      <trkpt lat="43.94797" lon="5.08106">
        <ele>190.6</ele>
        <time>2021-11-13T09:48:59Z</time>
      </trkpt>
      <trkpt lat="43.94792" lon="5.0811">
        <ele>191</ele>
        <time>2021-11-13T09:49:03Z</time>
      </trkpt>
      <trkpt lat="43.94776" lon="5.08123">
        <ele>192</ele>
        <time>2021-11-13T09:49:14Z</time>
      </trkpt>
      <trkpt lat="43.9476" lon="5.08136">
        <ele>192.8</ele>
        <time>2021-11-13T09:49:27Z</time>
      </trkpt>
      <trkpt lat="43.94752" lon="5.08142">
        <ele>193.2</ele>
        <time>2021-11-13T09:49:33Z</time>
      </trkpt>
      <trkpt lat="43.94735" lon="5.08155">
        <ele>194</ele>
        <time>2021-11-13T09:49:46Z</time>
      </trkpt>
      <trkpt lat="43.94726" lon="5.08163">
        <ele>194.4</ele>
        <time>2021-11-13T09:49:52Z</time>
      </trkpt>
      <trkpt lat="43.94709" lon="5.08175">
        <ele>195.4</ele>
        <time>2021-11-13T09:50:04Z</time>
      </trkpt>
      <trkpt lat="43.94708" lon="5.08176">
        <ele>195.6</ele>
        <time>2021-11-13T09:50:05Z</time>
      </trkpt>
      <trkpt lat="43.94696" lon="5.08182">
        <ele>196.6</ele>
        <time>2021-11-13T09:50:13Z</time>
      </trkpt>
      <trkpt lat="43.94679" lon="5.08191">
        <ele>197.6</ele>
        <time>2021-11-13T09:50:26Z</time>
      </trkpt>
      <trkpt lat="43.94676" lon="5.08193">
        <ele>197.6</ele>
        <time>2021-11-13T09:50:28Z</time>
      </trkpt>
      <trkpt lat="43.94668" lon="5.08197">
        <ele>198.8</ele>
        <time>2021-11-13T09:50:34Z</time>
      </trkpt>
      <trkpt lat="43.94663" lon="5.08201">
        <ele>198.8</ele>
        <time>2021-11-13T09:50:39Z</time>
      </trkpt>
      <trkpt lat="43.94659" lon="5.08201">
        <ele>198.6</ele>
        <time>2021-11-13T09:50:59Z</time>
      </trkpt>
      <trkpt lat="43.94652" lon="5.08206">
        <ele>198.8</ele>
        <time>2021-11-13T09:51:05Z</time>
      </trkpt>
      <trkpt lat="43.94649" lon="5.08208">
        <ele>198.8</ele>
        <time>2021-11-13T09:51:34Z</time>
      </trkpt>
      <trkpt lat="43.94634" lon="5.08223">
        <ele>199.8</ele>
        <time>2021-11-13T09:51:46Z</time>
      </trkpt>
      <trkpt lat="43.94633" lon="5.08225">
        <ele>199.8</ele>
        <time>2021-11-13T09:51:47Z</time>
      </trkpt>
      <trkpt lat="43.94624" lon="5.08239">
        <ele>200.6</ele>
        <time>2021-11-13T09:51:57Z</time>
      </trkpt>
      <trkpt lat="43.9462" lon="5.08246">
        <ele>201</ele>
        <time>2021-11-13T09:52:01Z</time>
      </trkpt>
      <trkpt lat="43.9461" lon="5.08254">
        <ele>202</ele>
        <time>2021-11-13T09:52:09Z</time>
      </trkpt>
      <trkpt lat="43.94606" lon="5.08256">
        <ele>203.2</ele>
        <time>2021-11-13T09:52:13Z</time>
      </trkpt>
      <trkpt lat="43.94595" lon="5.08248">
        <ele>203</ele>
        <time>2021-11-13T09:52:20Z</time>
      </trkpt>
      <trkpt lat="43.94591" lon="5.08244">
        <ele>202.8</ele>
        <time>2021-11-13T09:52:24Z</time>
      </trkpt>
      <trkpt lat="43.94578" lon="5.08233">
        <ele>202</ele>
        <time>2021-11-13T09:52:35Z</time>
      </trkpt>
      <trkpt lat="43.94561" lon="5.08219">
        <ele>201</ele>
        <time>2021-11-13T09:52:48Z</time>
      </trkpt>
      <trkpt lat="43.94552" lon="5.08214">
        <ele>200</ele>
        <time>2021-11-13T09:52:53Z</time>
      </trkpt>
      <trkpt lat="43.94545" lon="5.08208">
        <ele>198.8</ele>
        <time>2021-11-13T09:52:58Z</time>
      </trkpt>
      <trkpt lat="43.94543" lon="5.08204">
        <ele>198.4</ele>
        <time>2021-11-13T09:53:02Z</time>
      </trkpt>
      <trkpt lat="43.94546" lon="5.08197">
        <ele>198.6</ele>
        <time>2021-11-13T09:54:25Z</time>
      </trkpt>
      <trkpt lat="43.94545" lon="5.08193">
        <ele>198.2</ele>
        <time>2021-11-13T09:54:27Z</time>
      </trkpt>
      <trkpt lat="43.94545" lon="5.08191">
        <ele>196.8</ele>
        <time>2021-11-13T09:54:28Z</time>
      </trkpt>
      <trkpt lat="43.94544" lon="5.08172">
        <ele>195.8</ele>
        <time>2021-11-13T09:54:37Z</time>
      </trkpt>
      <trkpt lat="43.9454" lon="5.08167">
        <ele>195.2</ele>
        <time>2021-11-13T09:54:40Z</time>
      </trkpt>
      <trkpt lat="43.9454" lon="5.08164">
        <ele>194.8</ele>
        <time>2021-11-13T09:54:42Z</time>
      </trkpt>
      <trkpt lat="43.94543" lon="5.08158">
        <ele>193.6</ele>
        <time>2021-11-13T09:54:46Z</time>
      </trkpt>
      <trkpt lat="43.94543" lon="5.08151">
        <ele>192.4</ele>
        <time>2021-11-13T09:54:50Z</time>
      </trkpt>
      <trkpt lat="43.94543" lon="5.0815">
        <ele>192.4</ele>
        <time>2021-11-13T09:54:51Z</time>
      </trkpt>
      <trkpt lat="43.94544" lon="5.08147">
        <ele>192</ele>
        <time>2021-11-13T09:54:53Z</time>
      </trkpt>
      <trkpt lat="43.94544" lon="5.08144">
        <ele>191.4</ele>
        <time>2021-11-13T09:54:55Z</time>
      </trkpt>
      <trkpt lat="43.94545" lon="5.08133">
        <ele>190.6</ele>
        <time>2021-11-13T09:55:00Z</time>
      </trkpt>
      <trkpt lat="43.94545" lon="5.08131">
        <ele>190.4</ele>
        <time>2021-11-13T09:55:01Z</time>
      </trkpt>
      <trkpt lat="43.94545" lon="5.08127">
        <ele>190.2</ele>
        <time>2021-11-13T09:55:02Z</time>
      </trkpt>
      <trkpt lat="43.94538" lon="5.08117">
        <ele>189.4</ele>
        <time>2021-11-13T09:55:08Z</time>
      </trkpt>
      <trkpt lat="43.94538" lon="5.08116">
        <ele>189.4</ele>
        <time>2021-11-13T09:55:09Z</time>
      </trkpt>
      <trkpt lat="43.94541" lon="5.08112">
        <ele>188.4</ele>
        <time>2021-11-13T09:55:12Z</time>
      </trkpt>
      <trkpt lat="43.94542" lon="5.0811">
        <ele>188.2</ele>
        <time>2021-11-13T09:55:13Z</time>
      </trkpt>
      <trkpt lat="43.94543" lon="5.08105">
        <ele>186.6</ele>
        <time>2021-11-13T09:55:16Z</time>
      </trkpt>
      <trkpt lat="43.94543" lon="5.08103">
        <ele>186.2</ele>
        <time>2021-11-13T09:55:17Z</time>
      </trkpt>
      <trkpt lat="43.94542" lon="5.08097">
        <ele>185.4</ele>
        <time>2021-11-13T09:55:20Z</time>
      </trkpt>
      <trkpt lat="43.94542" lon="5.08093">
        <ele>185</ele>
        <time>2021-11-13T09:55:22Z</time>
      </trkpt>
      <trkpt lat="43.94543" lon="5.08086">
        <ele>184.6</ele>
        <time>2021-11-13T09:55:27Z</time>
      </trkpt>
      <trkpt lat="43.94544" lon="5.08085">
        <ele>184.4</ele>
        <time>2021-11-13T09:55:29Z</time>
      </trkpt>
      <trkpt lat="43.94547" lon="5.08079">
        <ele>184</ele>
        <time>2021-11-13T09:55:35Z</time>
      </trkpt>
      <trkpt lat="43.94559" lon="5.08069">
        <ele>183.4</ele>
        <time>2021-11-13T09:55:44Z</time>
      </trkpt>
      <trkpt lat="43.94567" lon="5.0805">
        <ele>183</ele>
        <time>2021-11-13T09:55:53Z</time>
      </trkpt>
      <trkpt lat="43.94576" lon="5.08028">
        <ele>183.4</ele>
        <time>2021-11-13T09:56:03Z</time>
      </trkpt>
      <trkpt lat="43.94589" lon="5.08008">
        <ele>183.2</ele>
        <time>2021-11-13T09:56:17Z</time>
      </trkpt>
      <trkpt lat="43.94594" lon="5.07983">
        <ele>182.8</ele>
        <time>2021-11-13T09:56:28Z</time>
      </trkpt>
      <trkpt lat="43.946" lon="5.07957">
        <ele>183.4</ele>
        <time>2021-11-13T09:56:39Z</time>
      </trkpt>
      <trkpt lat="43.94603" lon="5.07937">
        <ele>183.2</ele>
        <time>2021-11-13T09:56:49Z</time>
      </trkpt>
      <trkpt lat="43.94597" lon="5.07913">
        <ele>182.6</ele>
        <time>2021-11-13T09:57:02Z</time>
      </trkpt>
      <trkpt lat="43.94596" lon="5.07911">
        <ele>182.2</ele>
        <time>2021-11-13T09:57:03Z</time>
      </trkpt>
      <trkpt lat="43.94592" lon="5.079">
        <ele>181.2</ele>
        <time>2021-11-13T09:57:08Z</time>
      </trkpt>
      <trkpt lat="43.94591" lon="5.07891">
        <ele>181.2</ele>
        <time>2021-11-13T09:57:12Z</time>
      </trkpt>
      <trkpt lat="43.94585" lon="5.07881">
        <ele>180.2</ele>
        <time>2021-11-13T09:57:18Z</time>
      </trkpt>
      <trkpt lat="43.94587" lon="5.07868">
        <ele>178.8</ele>
        <time>2021-11-13T09:57:24Z</time>
      </trkpt>
      <trkpt lat="43.94585" lon="5.07861">
        <ele>177.8</ele>
        <time>2021-11-13T09:57:28Z</time>
      </trkpt>
      <trkpt lat="43.94583" lon="5.07853">
        <ele>177.4</ele>
        <time>2021-11-13T09:57:32Z</time>
      </trkpt>
      <trkpt lat="43.94582" lon="5.07846">
        <ele>176.6</ele>
        <time>2021-11-13T09:57:35Z</time>
      </trkpt>
      <trkpt lat="43.94582" lon="5.07842">
        <ele>175.4</ele>
        <time>2021-11-13T09:57:37Z</time>
      </trkpt>
      <trkpt lat="43.94582" lon="5.07838">
        <ele>174.4</ele>
        <time>2021-11-13T09:57:40Z</time>
      </trkpt>
      <trkpt lat="43.94581" lon="5.07836">
        <ele>174</ele>
        <time>2021-11-13T09:57:42Z</time>
      </trkpt>
      <trkpt lat="43.94579" lon="5.07832">
        <ele>173.6</ele>
        <time>2021-11-13T09:57:45Z</time>
      </trkpt>
      <trkpt lat="43.94579" lon="5.0783">
        <ele>173.2</ele>
        <time>2021-11-13T09:57:46Z</time>
      </trkpt>
      <trkpt lat="43.94578" lon="5.07826">
        <ele>172</ele>
        <time>2021-11-13T09:57:49Z</time>
      </trkpt>
      <trkpt lat="43.94578" lon="5.07824">
        <ele>171.8</ele>
        <time>2021-11-13T09:57:50Z</time>
      </trkpt>
      <trkpt lat="43.94574" lon="5.07817">
        <ele>171.2</ele>
        <time>2021-11-13T09:57:56Z</time>
      </trkpt>
      <trkpt lat="43.94573" lon="5.07816">
        <ele>171</ele>
        <time>2021-11-13T09:57:57Z</time>
      </trkpt>
      <trkpt lat="43.94566" lon="5.07807">
        <ele>170.2</ele>
        <time>2021-11-13T09:58:04Z</time>
      </trkpt>
      <trkpt lat="43.94565" lon="5.07802">
        <ele>169.8</ele>
        <time>2021-11-13T09:58:07Z</time>
      </trkpt>
      <trkpt lat="43.94563" lon="5.07796">
        <ele>168.8</ele>
        <time>2021-11-13T09:58:11Z</time>
      </trkpt>
      <trkpt lat="43.9456" lon="5.07786">
        <ele>167.6</ele>
        <time>2021-11-13T09:58:17Z</time>
      </trkpt>
      <trkpt lat="43.94553" lon="5.07775">
        <ele>166.6</ele>
        <time>2021-11-13T09:58:23Z</time>
      </trkpt>
      <trkpt lat="43.94549" lon="5.07768">
        <ele>165.4</ele>
        <time>2021-11-13T09:58:27Z</time>
      </trkpt>
      <trkpt lat="43.9454" lon="5.07757">
        <ele>164.8</ele>
        <time>2021-11-13T09:58:34Z</time>
      </trkpt>
      <trkpt lat="43.94536" lon="5.0775">
        <ele>164.4</ele>
        <time>2021-11-13T09:58:38Z</time>
      </trkpt>
      <trkpt lat="43.94543" lon="5.07742">
        <ele>163.6</ele>
        <time>2021-11-13T09:58:44Z</time>
      </trkpt>
      <trkpt lat="43.94546" lon="5.0774">
        <ele>163.4</ele>
        <time>2021-11-13T09:58:47Z</time>
      </trkpt>
      <trkpt lat="43.94549" lon="5.07735">
        <ele>162.4</ele>
        <time>2021-11-13T09:58:50Z</time>
      </trkpt>
      <trkpt lat="43.94553" lon="5.07729">
        <ele>161.2</ele>
        <time>2021-11-13T09:58:53Z</time>
      </trkpt>
      <trkpt lat="43.94568" lon="5.07713">
        <ele>161</ele>
        <time>2021-11-13T09:59:04Z</time>
      </trkpt>
      <trkpt lat="43.94573" lon="5.07694">
        <ele>161.2</ele>
        <time>2021-11-13T09:59:14Z</time>
      </trkpt>
      <trkpt lat="43.94569" lon="5.07685">
        <ele>160.2</ele>
        <time>2021-11-13T09:59:30Z</time>
      </trkpt>
      <trkpt lat="43.94563" lon="5.07674">
        <ele>159.2</ele>
        <time>2021-11-13T09:59:38Z</time>
      </trkpt>
      <trkpt lat="43.94555" lon="5.07659">
        <ele>158</ele>
        <time>2021-11-13T09:59:46Z</time>
      </trkpt>
      <trkpt lat="43.94548" lon="5.0765">
        <ele>156.8</ele>
        <time>2021-11-13T09:59:53Z</time>
      </trkpt>
      <trkpt lat="43.94542" lon="5.07643">
        <ele>155.8</ele>
        <time>2021-11-13T09:59:58Z</time>
      </trkpt>
      <trkpt lat="43.94531" lon="5.07628">
        <ele>154.6</ele>
        <time>2021-11-13T10:00:07Z</time>
      </trkpt>
      <trkpt lat="43.94526" lon="5.07625">
        <ele>153.4</ele>
        <time>2021-11-13T10:00:11Z</time>
      </trkpt>
      <trkpt lat="43.94522" lon="5.07616">
        <ele>152.2</ele>
        <time>2021-11-13T10:00:16Z</time>
      </trkpt>
      <trkpt lat="43.94517" lon="5.07607">
        <ele>151.2</ele>
        <time>2021-11-13T10:00:22Z</time>
      </trkpt>
      <trkpt lat="43.94512" lon="5.07603">
        <ele>150</ele>
        <time>2021-11-13T10:00:27Z</time>
      </trkpt>
      <trkpt lat="43.94506" lon="5.07601">
        <ele>149</ele>
        <time>2021-11-13T10:00:31Z</time>
      </trkpt>
      <trkpt lat="43.94497" lon="5.07594">
        <ele>147.8</ele>
        <time>2021-11-13T10:00:37Z</time>
      </trkpt>
      <trkpt lat="43.94489" lon="5.07587">
        <ele>146.8</ele>
        <time>2021-11-13T10:00:44Z</time>
      </trkpt>
      <trkpt lat="43.94478" lon="5.07576">
        <ele>145.8</ele>
        <time>2021-11-13T10:00:53Z</time>
      </trkpt>
      <trkpt lat="43.94472" lon="5.07568">
        <ele>144.8</ele>
        <time>2021-11-13T10:00:59Z</time>
      </trkpt>
      <trkpt lat="43.94465" lon="5.07558">
        <ele>143.8</ele>
        <time>2021-11-13T10:01:06Z</time>
      </trkpt>
      <trkpt lat="43.94454" lon="5.07536">
        <ele>142.8</ele>
        <time>2021-11-13T10:01:19Z</time>
      </trkpt>
      <trkpt lat="43.94446" lon="5.0752">
        <ele>141.8</ele>
        <time>2021-11-13T10:01:29Z</time>
      </trkpt>
      <trkpt lat="43.94445" lon="5.07519">
        <ele>141.6</ele>
        <time>2021-11-13T10:01:30Z</time>
      </trkpt>
      <trkpt lat="43.94436" lon="5.07506">
        <ele>140.6</ele>
        <time>2021-11-13T10:01:38Z</time>
      </trkpt>
      <trkpt lat="43.94428" lon="5.07497">
        <ele>139.6</ele>
        <time>2021-11-13T10:01:45Z</time>
      </trkpt>
      <trkpt lat="43.94423" lon="5.07492">
        <ele>138.4</ele>
        <time>2021-11-13T10:01:49Z</time>
      </trkpt>
      <trkpt lat="43.94414" lon="5.07489">
        <ele>137.2</ele>
        <time>2021-11-13T10:01:54Z</time>
      </trkpt>
      <trkpt lat="43.94405" lon="5.07474">
        <ele>136</ele>
        <time>2021-11-13T10:02:02Z</time>
      </trkpt>
      <trkpt lat="43.94402" lon="5.0747">
        <ele>135</ele>
        <time>2021-11-13T10:02:05Z</time>
      </trkpt>
      <trkpt lat="43.94397" lon="5.07464">
        <ele>134</ele>
        <time>2021-11-13T10:02:10Z</time>
      </trkpt>
      <trkpt lat="43.94392" lon="5.07458">
        <ele>132.8</ele>
        <time>2021-11-13T10:02:15Z</time>
      </trkpt>
      <trkpt lat="43.94382" lon="5.07448">
        <ele>131.8</ele>
        <time>2021-11-13T10:02:24Z</time>
      </trkpt>
      <trkpt lat="43.94377" lon="5.07445">
        <ele>130.6</ele>
        <time>2021-11-13T10:02:29Z</time>
      </trkpt>
      <trkpt lat="43.94374" lon="5.07444">
        <ele>130.4</ele>
        <time>2021-11-13T10:02:32Z</time>
      </trkpt>
      <trkpt lat="43.94369" lon="5.07443">
        <ele>130.4</ele>
        <time>2021-11-13T10:02:35Z</time>
      </trkpt>
      <trkpt lat="43.9436" lon="5.07443">
        <ele>129.6</ele>
        <time>2021-11-13T10:02:39Z</time>
      </trkpt>
      <trkpt lat="43.94352" lon="5.0744">
        <ele>129.6</ele>
        <time>2021-11-13T10:02:44Z</time>
      </trkpt>
      <trkpt lat="43.94333" lon="5.07434">
        <ele>128.6</ele>
        <time>2021-11-13T10:02:58Z</time>
      </trkpt>
      <trkpt lat="43.9433" lon="5.07431">
        <ele>128.6</ele>
        <time>2021-11-13T10:02:59Z</time>
      </trkpt>
      <trkpt lat="43.94319" lon="5.07426">
        <ele>128</ele>
        <time>2021-11-13T10:03:06Z</time>
      </trkpt>
      <trkpt lat="43.94317" lon="5.07424">
        <ele>127.8</ele>
        <time>2021-11-13T10:03:08Z</time>
      </trkpt>
      <trkpt lat="43.94314" lon="5.07418">
        <ele>127.8</ele>
        <time>2021-11-13T10:03:12Z</time>
      </trkpt>
      <trkpt lat="43.943" lon="5.074">
        <ele>127.8</ele>
        <time>2021-11-13T10:03:23Z</time>
      </trkpt>
      <trkpt lat="43.94296" lon="5.07393">
        <ele>127.4</ele>
        <time>2021-11-13T10:03:27Z</time>
      </trkpt>
      <trkpt lat="43.94293" lon="5.07385">
        <ele>126.4</ele>
        <time>2021-11-13T10:03:32Z</time>
      </trkpt>
      <trkpt lat="43.94292" lon="5.0736">
        <ele>126.2</ele>
        <time>2021-11-13T10:03:46Z</time>
      </trkpt>
      <trkpt lat="43.94294" lon="5.0734">
        <ele>127.2</ele>
        <time>2021-11-13T10:03:55Z</time>
      </trkpt>
      <trkpt lat="43.94295" lon="5.07338">
        <ele>127.6</ele>
        <time>2021-11-13T10:03:56Z</time>
      </trkpt>
      <trkpt lat="43.94296" lon="5.07334">
        <ele>127.6</ele>
        <time>2021-11-13T10:03:58Z</time>
      </trkpt>
      <trkpt lat="43.94294" lon="5.07309">
        <ele>127.8</ele>
        <time>2021-11-13T10:04:10Z</time>
      </trkpt>
      <trkpt lat="43.94294" lon="5.07307">
        <ele>127.8</ele>
        <time>2021-11-13T10:04:11Z</time>
      </trkpt>
      <trkpt lat="43.94293" lon="5.07303">
        <ele>127.8</ele>
        <time>2021-11-13T10:04:13Z</time>
      </trkpt>
      <trkpt lat="43.94295" lon="5.07286">
        <ele>127.6</ele>
        <time>2021-11-13T10:04:23Z</time>
      </trkpt>
      <trkpt lat="43.94294" lon="5.07262">
        <ele>128.4</ele>
        <time>2021-11-13T10:04:34Z</time>
      </trkpt>
      <trkpt lat="43.94295" lon="5.0726">
        <ele>128.4</ele>
        <time>2021-11-13T10:04:35Z</time>
      </trkpt>
      <trkpt lat="43.94294" lon="5.07257">
        <ele>128.2</ele>
        <time>2021-11-13T10:04:37Z</time>
      </trkpt>
      <trkpt lat="43.94291" lon="5.07243">
        <ele>128.6</ele>
        <time>2021-11-13T10:04:43Z</time>
      </trkpt>
      <trkpt lat="43.94293" lon="5.07229">
        <ele>129.6</ele>
        <time>2021-11-13T10:04:48Z</time>
      </trkpt>
      <trkpt lat="43.9429" lon="5.07211">
        <ele>130</ele>
        <time>2021-11-13T10:04:57Z</time>
      </trkpt>
      <trkpt lat="43.94283" lon="5.072">
        <ele>129.2</ele>
        <time>2021-11-13T10:05:03Z</time>
      </trkpt>
      <trkpt lat="43.94269" lon="5.07186">
        <ele>128.4</ele>
        <time>2021-11-13T10:05:12Z</time>
      </trkpt>
      <trkpt lat="43.94264" lon="5.07181">
        <ele>127.2</ele>
        <time>2021-11-13T10:05:17Z</time>
      </trkpt>
      <trkpt lat="43.9426" lon="5.07178">
        <ele>126.4</ele>
        <time>2021-11-13T10:05:21Z</time>
      </trkpt>
      <trkpt lat="43.94258" lon="5.07177">
        <ele>126.2</ele>
        <time>2021-11-13T10:05:22Z</time>
      </trkpt>
      <trkpt lat="43.94254" lon="5.07174">
        <ele>125.4</ele>
        <time>2021-11-13T10:05:26Z</time>
      </trkpt>
      <trkpt lat="43.94252" lon="5.07173">
        <ele>125</ele>
        <time>2021-11-13T10:05:27Z</time>
      </trkpt>
      <trkpt lat="43.9425" lon="5.07173">
        <ele>124.8</ele>
        <time>2021-11-13T10:05:28Z</time>
      </trkpt>
      <trkpt lat="43.94241" lon="5.07164">
        <ele>124</ele>
        <time>2021-11-13T10:05:36Z</time>
      </trkpt>
      <trkpt lat="43.94236" lon="5.0716">
        <ele>123</ele>
        <time>2021-11-13T10:05:40Z</time>
      </trkpt>
      <trkpt lat="43.94227" lon="5.0715">
        <ele>121.8</ele>
        <time>2021-11-13T10:05:48Z</time>
      </trkpt>
      <trkpt lat="43.94222" lon="5.07146">
        <ele>120.6</ele>
        <time>2021-11-13T10:05:52Z</time>
      </trkpt>
      <trkpt lat="43.9421" lon="5.07136">
        <ele>119.6</ele>
        <time>2021-11-13T10:06:00Z</time>
      </trkpt>
      <trkpt lat="43.942" lon="5.07128">
        <ele>118.4</ele>
        <time>2021-11-13T10:06:09Z</time>
      </trkpt>
      <trkpt lat="43.94196" lon="5.07123">
        <ele>117.2</ele>
        <time>2021-11-13T10:06:14Z</time>
      </trkpt>
      <trkpt lat="43.94194" lon="5.07122">
        <ele>116.8</ele>
        <time>2021-11-13T10:06:16Z</time>
      </trkpt>
      <trkpt lat="43.94191" lon="5.07119">
        <ele>116.6</ele>
        <time>2021-11-13T10:06:18Z</time>
      </trkpt>
      <trkpt lat="43.94188" lon="5.07115">
        <ele>116</ele>
        <time>2021-11-13T10:06:21Z</time>
      </trkpt>
      <trkpt lat="43.94183" lon="5.07106">
        <ele>115.2</ele>
        <time>2021-11-13T10:06:26Z</time>
      </trkpt>
      <trkpt lat="43.9418" lon="5.07102">
        <ele>115</ele>
        <time>2021-11-13T10:06:28Z</time>
      </trkpt>
      <trkpt lat="43.94177" lon="5.07098">
        <ele>115</ele>
        <time>2021-11-13T10:06:30Z</time>
      </trkpt>
      <trkpt lat="43.94174" lon="5.07093">
        <ele>115</ele>
        <time>2021-11-13T10:06:32Z</time>
      </trkpt>
      <trkpt lat="43.94168" lon="5.07087">
        <ele>114.8</ele>
        <time>2021-11-13T10:06:36Z</time>
      </trkpt>
      <trkpt lat="43.94165" lon="5.07082">
        <ele>114</ele>
        <time>2021-11-13T10:06:39Z</time>
      </trkpt>
      <trkpt lat="43.94161" lon="5.07077">
        <ele>113.2</ele>
        <time>2021-11-13T10:06:44Z</time>
      </trkpt>
      <trkpt lat="43.94159" lon="5.07074">
        <ele>113.2</ele>
        <time>2021-11-13T10:06:47Z</time>
      </trkpt>
      <trkpt lat="43.94155" lon="5.07065">
        <ele>113</ele>
        <time>2021-11-13T10:06:52Z</time>
      </trkpt>
      <trkpt lat="43.94148" lon="5.07043">
        <ele>113.8</ele>
        <time>2021-11-13T10:07:00Z</time>
      </trkpt>
      <trkpt lat="43.94141" lon="5.07031">
        <ele>112.8</ele>
        <time>2021-11-13T10:07:07Z</time>
      </trkpt>
      <trkpt lat="43.94131" lon="5.0701">
        <ele>112</ele>
        <time>2021-11-13T10:07:18Z</time>
      </trkpt>
      <trkpt lat="43.94128" lon="5.07006">
        <ele>111.8</ele>
        <time>2021-11-13T10:07:21Z</time>
      </trkpt>
      <trkpt lat="43.94126" lon="5.07005">
        <ele>111.6</ele>
        <time>2021-11-13T10:07:22Z</time>
      </trkpt>
      <trkpt lat="43.94113" lon="5.06987">
        <ele>110.8</ele>
        <time>2021-11-13T10:07:33Z</time>
      </trkpt>
      <trkpt lat="43.94112" lon="5.06985">
        <ele>110.6</ele>
        <time>2021-11-13T10:07:34Z</time>
      </trkpt>
      <trkpt lat="43.94104" lon="5.06975">
        <ele>109.4</ele>
        <time>2021-11-13T10:07:40Z</time>
      </trkpt>
      <trkpt lat="43.94092" lon="5.06958">
        <ele>108.2</ele>
        <time>2021-11-13T10:07:51Z</time>
      </trkpt>
      <trkpt lat="43.94086" lon="5.06946">
        <ele>107.2</ele>
        <time>2021-11-13T10:07:57Z</time>
      </trkpt>
      <trkpt lat="43.94073" lon="5.06929">
        <ele>106.6</ele>
        <time>2021-11-13T10:08:08Z</time>
      </trkpt>
      <trkpt lat="43.94071" lon="5.06926">
        <ele>106</ele>
        <time>2021-11-13T10:08:10Z</time>
      </trkpt>
      <trkpt lat="43.94064" lon="5.06915">
        <ele>105</ele>
        <time>2021-11-13T10:08:17Z</time>
      </trkpt>
      <trkpt lat="43.9405" lon="5.06897">
        <ele>104</ele>
        <time>2021-11-13T10:08:28Z</time>
      </trkpt>
      <trkpt lat="43.94049" lon="5.06895">
        <ele>103.8</ele>
        <time>2021-11-13T10:08:29Z</time>
      </trkpt>
      <trkpt lat="43.94045" lon="5.06889">
        <ele>102.8</ele>
        <time>2021-11-13T10:08:34Z</time>
      </trkpt>
      <trkpt lat="43.94036" lon="5.0688">
        <ele>101.8</ele>
        <time>2021-11-13T10:08:42Z</time>
      </trkpt>
      <trkpt lat="43.94024" lon="5.06866">
        <ele>100.8</ele>
        <time>2021-11-13T10:08:52Z</time>
      </trkpt>
      <trkpt lat="43.94016" lon="5.06858">
        <ele>100.6</ele>
        <time>2021-11-13T10:09:00Z</time>
      </trkpt>
      <trkpt lat="43.94016" lon="5.06858">
        <ele>100.4</ele>
        <time>2021-11-13T10:09:02Z</time>
      </trkpt>
      <trkpt lat="43.94014" lon="5.06862">
        <ele>100.4</ele>
        <time>2021-11-13T10:09:06Z</time>
      </trkpt>
      <trkpt lat="43.94003" lon="5.06883">
        <ele>100.4</ele>
        <time>2021-11-13T10:09:19Z</time>
      </trkpt>
      <trkpt lat="43.93989" lon="5.06903">
        <ele>100.4</ele>
        <time>2021-11-13T10:09:33Z</time>
      </trkpt>
      <trkpt lat="43.93978" lon="5.06923">
        <ele>100.8</ele>
        <time>2021-11-13T10:09:45Z</time>
      </trkpt>
      <trkpt lat="43.93968" lon="5.06946">
        <ele>100.2</ele>
        <time>2021-11-13T10:09:56Z</time>
      </trkpt>
      <trkpt lat="43.93958" lon="5.06969">
        <ele>101</ele>
        <time>2021-11-13T10:10:08Z</time>
      </trkpt>
      <trkpt lat="43.93948" lon="5.06989">
        <ele>100.4</ele>
        <time>2021-11-13T10:10:19Z</time>
      </trkpt>
      <trkpt lat="43.93937" lon="5.0701">
        <ele>101</ele>
        <time>2021-11-13T10:10:31Z</time>
      </trkpt>
      <trkpt lat="43.93933" lon="5.07015">
        <ele>100.4</ele>
        <time>2021-11-13T10:10:35Z</time>
      </trkpt>
      <trkpt lat="43.9393" lon="5.07021">
        <ele>100.6</ele>
        <time>2021-11-13T10:10:39Z</time>
      </trkpt>
      <trkpt lat="43.93918" lon="5.07044">
        <ele>101</ele>
        <time>2021-11-13T10:10:51Z</time>
      </trkpt>
      <trkpt lat="43.93906" lon="5.07062">
        <ele>100.4</ele>
        <time>2021-11-13T10:11:02Z</time>
      </trkpt>
      <trkpt lat="43.93893" lon="5.07083">
        <ele>100.8</ele>
        <time>2021-11-13T10:11:15Z</time>
      </trkpt>
      <trkpt lat="43.9388" lon="5.07102">
        <ele>100.4</ele>
        <time>2021-11-13T10:11:25Z</time>
      </trkpt>
      <trkpt lat="43.93864" lon="5.07112">
        <ele>101.4</ele>
        <time>2021-11-13T10:11:36Z</time>
      </trkpt>
      <trkpt lat="43.93845" lon="5.0712">
        <ele>100.6</ele>
        <time>2021-11-13T10:11:49Z</time>
      </trkpt>
      <trkpt lat="43.93827" lon="5.07126">
        <ele>101.2</ele>
        <time>2021-11-13T10:12:02Z</time>
      </trkpt>
      <trkpt lat="43.93809" lon="5.07131">
        <ele>101.8</ele>
        <time>2021-11-13T10:12:11Z</time>
      </trkpt>
      <trkpt lat="43.93802" lon="5.07122">
        <ele>101.6</ele>
        <time>2021-11-13T10:12:17Z</time>
      </trkpt>
      <trkpt lat="43.93784" lon="5.07128">
        <ele>100.2</ele>
        <time>2021-11-13T10:12:33Z</time>
      </trkpt>
      <trkpt lat="43.93767" lon="5.07138">
        <ele>100.6</ele>
        <time>2021-11-13T10:12:45Z</time>
      </trkpt>
      <trkpt lat="43.9375" lon="5.0715">
        <ele>99.8</ele>
        <time>2021-11-13T10:12:57Z</time>
      </trkpt>
      <trkpt lat="43.93733" lon="5.07163">
        <ele>100.2</ele>
        <time>2021-11-13T10:13:11Z</time>
      </trkpt>
      <trkpt lat="43.93719" lon="5.07178">
        <ele>100.8</ele>
        <time>2021-11-13T10:13:23Z</time>
      </trkpt>
      <trkpt lat="43.93701" lon="5.07189">
        <ele>100.4</ele>
        <time>2021-11-13T10:13:33Z</time>
      </trkpt>
      <trkpt lat="43.93684" lon="5.07195">
        <ele>100.6</ele>
        <time>2021-11-13T10:13:46Z</time>
      </trkpt>
      <trkpt lat="43.93681" lon="5.07198">
        <ele>100.6</ele>
        <time>2021-11-13T10:13:49Z</time>
      </trkpt>
      <trkpt lat="43.93681" lon="5.07197">
        <ele>100.4</ele>
        <time>2021-11-13T10:13:51Z</time>
      </trkpt>
      <trkpt lat="43.9368" lon="5.07202">
        <ele>100.2</ele>
        <time>2021-11-13T10:14:00Z</time>
      </trkpt>
      <trkpt lat="43.93672" lon="5.07225">
        <ele>100.2</ele>
        <time>2021-11-13T10:14:12Z</time>
      </trkpt>
      <trkpt lat="43.93664" lon="5.07248">
        <ele>100.4</ele>
        <time>2021-11-13T10:14:23Z</time>
      </trkpt>
      <trkpt lat="43.93662" lon="5.07273">
        <ele>101</ele>
        <time>2021-11-13T10:14:36Z</time>
      </trkpt>
      <trkpt lat="43.93655" lon="5.07297">
        <ele>100.6</ele>
        <time>2021-11-13T10:14:48Z</time>
      </trkpt>
      <trkpt lat="43.93654" lon="5.07302">
        <ele>100.8</ele>
        <time>2021-11-13T10:14:50Z</time>
      </trkpt>
      <trkpt lat="43.93649" lon="5.07328">
        <ele>100.8</ele>
        <time>2021-11-13T10:15:02Z</time>
      </trkpt>
      <trkpt lat="43.9364" lon="5.0735">
        <ele>100.4</ele>
        <time>2021-11-13T10:15:15Z</time>
      </trkpt>
      <trkpt lat="43.93625" lon="5.07369">
        <ele>100.4</ele>
        <time>2021-11-13T10:15:27Z</time>
      </trkpt>
      <trkpt lat="43.93612" lon="5.07386">
        <ele>101.2</ele>
        <time>2021-11-13T10:15:38Z</time>
      </trkpt>
      <trkpt lat="43.93607" lon="5.0739">
        <ele>100.8</ele>
        <time>2021-11-13T10:15:42Z</time>
      </trkpt>
      <trkpt lat="43.93604" lon="5.07395">
        <ele>100.8</ele>
        <time>2021-11-13T10:15:45Z</time>
      </trkpt>
      <trkpt lat="43.936" lon="5.07399">
        <ele>100.6</ele>
        <time>2021-11-13T10:15:48Z</time>
      </trkpt>
      <trkpt lat="43.9359" lon="5.07413">
        <ele>100.6</ele>
        <time>2021-11-13T10:15:58Z</time>
      </trkpt>
      <trkpt lat="43.93589" lon="5.07413">
        <ele>100.6</ele>
        <time>2021-11-13T10:16:00Z</time>
      </trkpt>
      <trkpt lat="43.93582" lon="5.07425">
        <ele>100.6</ele>
        <time>2021-11-13T10:16:36Z</time>
      </trkpt>
      <trkpt lat="43.93571" lon="5.07445">
        <ele>101.4</ele>
        <time>2021-11-13T10:16:49Z</time>
      </trkpt>
      <trkpt lat="43.93559" lon="5.07466">
        <ele>100.8</ele>
        <time>2021-11-13T10:17:01Z</time>
      </trkpt>
      <trkpt lat="43.93547" lon="5.07487">
        <ele>101</ele>
        <time>2021-11-13T10:17:12Z</time>
      </trkpt>
      <trkpt lat="43.93534" lon="5.07505">
        <ele>101.8</ele>
        <time>2021-11-13T10:17:24Z</time>
      </trkpt>
      <trkpt lat="43.93534" lon="5.07507">
        <ele>101.8</ele>
        <time>2021-11-13T10:17:25Z</time>
      </trkpt>
      <trkpt lat="43.93535" lon="5.07509">
        <ele>101.8</ele>
        <time>2021-11-13T10:17:26Z</time>
      </trkpt>
      <trkpt lat="43.93535" lon="5.07511">
        <ele>102</ele>
        <time>2021-11-13T10:17:28Z</time>
      </trkpt>
      <trkpt lat="43.93535" lon="5.07513">
        <ele>102</ele>
        <time>2021-11-13T10:17:30Z</time>
      </trkpt>
      <trkpt lat="43.93538" lon="5.07518">
        <ele>102.2</ele>
        <time>2021-11-13T10:17:34Z</time>
      </trkpt>
      <trkpt lat="43.93541" lon="5.07526">
        <ele>102.2</ele>
        <time>2021-11-13T10:17:39Z</time>
      </trkpt>
    </trkseg>
  </trk>
</gpx>